<?xml version="1.0" encoding="UTF-8" standalone="no" ?>
<gpx xmlns="http://www.topografix.com/GPX/1/1" xmlns:xsi="http://www.w3.org/2001/XMLSchema-instance" xsi:schemaLocation="http://www.topografix.com/GPX/1/1 http://www.topografix.com/GPX/1/1/gpx.xsd" version="1.1" creator="VisuGPX - https://www.visugpx.com">
  <metadata>
    <name>Petit Avin Hoyoux BBorsu Ochain</name>
    <desc><![CDATA[Petit tour de reprise, par une dernière offensive de l\'hiver mars 2013]]></desc>
  </metadata>
  <trk>
    <name><![CDATA[Petit Avin Hoyoux BBorsu Ochain]]></name>
    <trkseg>
      <trkpt lat="50.44654" lon="5.34784">
        <ele>252.9</ele>
        <time>2013-03-13T11:28:34Z</time>
      </trkpt>
      <trkpt lat="50.44654" lon="5.34784">
        <ele>304</ele>
        <time>2013-03-13T11:31:43Z</time>
      </trkpt>
      <trkpt lat="50.44636" lon="5.34787">
        <ele>297.3</ele>
        <time>2013-03-13T11:32:07Z</time>
      </trkpt>
      <trkpt lat="50.44609" lon="5.34803">
        <ele>297.7</ele>
        <time>2013-03-13T11:32:13Z</time>
      </trkpt>
      <trkpt lat="50.44579" lon="5.3482">
        <ele>298.6</ele>
        <time>2013-03-13T11:32:18Z</time>
      </trkpt>
      <trkpt lat="50.44539" lon="5.3483">
        <ele>297.8</ele>
        <time>2013-03-13T11:32:25Z</time>
      </trkpt>
      <trkpt lat="50.44497" lon="5.34842">
        <ele>297.6</ele>
        <time>2013-03-13T11:32:31Z</time>
      </trkpt>
      <trkpt lat="50.44475" lon="5.34829">
        <ele>295.5</ele>
        <time>2013-03-13T11:32:42Z</time>
      </trkpt>
      <trkpt lat="50.44475" lon="5.34829">
        <ele>295.5</ele>
        <time>2013-03-13T11:32:49Z</time>
      </trkpt>
      <trkpt lat="50.44475" lon="5.34829">
        <ele>247.1</ele>
        <time>2013-03-13T11:32:49Z</time>
      </trkpt>
      <trkpt lat="50.44445" lon="5.34816">
        <ele>295.7</ele>
        <time>2013-03-13T11:33:12Z</time>
      </trkpt>
      <trkpt lat="50.44445" lon="5.34816">
        <ele>246</ele>
        <time>2013-03-13T11:33:12Z</time>
      </trkpt>
      <trkpt lat="50.44431" lon="5.34809">
        <ele>295.5</ele>
        <time>2013-03-13T11:33:15Z</time>
      </trkpt>
      <trkpt lat="50.44412" lon="5.34787">
        <ele>295.9</ele>
        <time>2013-03-13T11:33:21Z</time>
      </trkpt>
      <trkpt lat="50.44399" lon="5.34765">
        <ele>294.7</ele>
        <time>2013-03-13T11:33:26Z</time>
      </trkpt>
      <trkpt lat="50.44385" lon="5.34738">
        <ele>293.6</ele>
        <time>2013-03-13T11:33:31Z</time>
      </trkpt>
      <trkpt lat="50.44367" lon="5.34682">
        <ele>292.7</ele>
        <time>2013-03-13T11:33:38Z</time>
      </trkpt>
      <trkpt lat="50.44356" lon="5.34655">
        <ele>291.2</ele>
        <time>2013-03-13T11:33:43Z</time>
      </trkpt>
      <trkpt lat="50.44341" lon="5.34614">
        <ele>291.1</ele>
        <time>2013-03-13T11:33:49Z</time>
      </trkpt>
      <trkpt lat="50.4433" lon="5.34575">
        <ele>290.4</ele>
        <time>2013-03-13T11:33:56Z</time>
      </trkpt>
      <trkpt lat="50.44322" lon="5.34542">
        <ele>289.4</ele>
        <time>2013-03-13T11:34:01Z</time>
      </trkpt>
      <trkpt lat="50.44312" lon="5.34504">
        <ele>289.9</ele>
        <time>2013-03-13T11:34:07Z</time>
      </trkpt>
      <trkpt lat="50.44297" lon="5.34454">
        <ele>288.7</ele>
        <time>2013-03-13T11:34:13Z</time>
      </trkpt>
      <trkpt lat="50.44284" lon="5.34412">
        <ele>289.2</ele>
        <time>2013-03-13T11:34:18Z</time>
      </trkpt>
      <trkpt lat="50.44272" lon="5.34371">
        <ele>288.6</ele>
        <time>2013-03-13T11:34:23Z</time>
      </trkpt>
      <trkpt lat="50.44263" lon="5.34321">
        <ele>285.1</ele>
        <time>2013-03-13T11:34:30Z</time>
      </trkpt>
      <trkpt lat="50.44247" lon="5.34274">
        <ele>284.1</ele>
        <time>2013-03-13T11:34:37Z</time>
      </trkpt>
      <trkpt lat="50.44237" lon="5.34248">
        <ele>284.3</ele>
        <time>2013-03-13T11:34:43Z</time>
      </trkpt>
      <trkpt lat="50.4423" lon="5.34231">
        <ele>285</ele>
        <time>2013-03-13T11:34:49Z</time>
      </trkpt>
      <trkpt lat="50.44213" lon="5.34181">
        <ele>280.9</ele>
        <time>2013-03-13T11:35:00Z</time>
      </trkpt>
      <trkpt lat="50.4419" lon="5.34128">
        <ele>279.7</ele>
        <time>2013-03-13T11:35:06Z</time>
      </trkpt>
      <trkpt lat="50.44171" lon="5.34101">
        <ele>279.7</ele>
        <time>2013-03-13T11:35:11Z</time>
      </trkpt>
      <trkpt lat="50.44139" lon="5.34071">
        <ele>277.3</ele>
        <time>2013-03-13T11:35:18Z</time>
      </trkpt>
      <trkpt lat="50.4411" lon="5.34036">
        <ele>277.2</ele>
        <time>2013-03-13T11:35:25Z</time>
      </trkpt>
      <trkpt lat="50.44067" lon="5.34033">
        <ele>276.5</ele>
        <time>2013-03-13T11:35:31Z</time>
      </trkpt>
      <trkpt lat="50.44029" lon="5.34044">
        <ele>275</ele>
        <time>2013-03-13T11:35:37Z</time>
      </trkpt>
      <trkpt lat="50.43985" lon="5.34024">
        <ele>274.4</ele>
        <time>2013-03-13T11:35:42Z</time>
      </trkpt>
      <trkpt lat="50.43935" lon="5.33989">
        <ele>273.6</ele>
        <time>2013-03-13T11:35:48Z</time>
      </trkpt>
      <trkpt lat="50.43891" lon="5.33947">
        <ele>274.2</ele>
        <time>2013-03-13T11:35:53Z</time>
      </trkpt>
      <trkpt lat="50.43852" lon="5.33923">
        <ele>272.4</ele>
        <time>2013-03-13T11:35:58Z</time>
      </trkpt>
      <trkpt lat="50.43812" lon="5.33891">
        <ele>271.5</ele>
        <time>2013-03-13T11:36:04Z</time>
      </trkpt>
      <trkpt lat="50.43778" lon="5.33862">
        <ele>271.1</ele>
        <time>2013-03-13T11:36:10Z</time>
      </trkpt>
      <trkpt lat="50.43755" lon="5.3385">
        <ele>271</ele>
        <time>2013-03-13T11:36:17Z</time>
      </trkpt>
      <trkpt lat="50.43737" lon="5.33829">
        <ele>270.4</ele>
        <time>2013-03-13T11:36:23Z</time>
      </trkpt>
      <trkpt lat="50.43714" lon="5.33807">
        <ele>270.2</ele>
        <time>2013-03-13T11:36:29Z</time>
      </trkpt>
      <trkpt lat="50.43697" lon="5.33791">
        <ele>270.2</ele>
        <time>2013-03-13T11:36:34Z</time>
      </trkpt>
      <trkpt lat="50.43679" lon="5.33775">
        <ele>272.6</ele>
        <time>2013-03-13T11:36:39Z</time>
      </trkpt>
      <trkpt lat="50.43661" lon="5.33754">
        <ele>272.1</ele>
        <time>2013-03-13T11:36:46Z</time>
      </trkpt>
      <trkpt lat="50.43653" lon="5.33734">
        <ele>272.2</ele>
        <time>2013-03-13T11:36:52Z</time>
      </trkpt>
      <trkpt lat="50.43639" lon="5.33697">
        <ele>272.3</ele>
        <time>2013-03-13T11:37:02Z</time>
      </trkpt>
      <trkpt lat="50.43628" lon="5.33669">
        <ele>273.4</ele>
        <time>2013-03-13T11:37:10Z</time>
      </trkpt>
      <trkpt lat="50.43623" lon="5.33649">
        <ele>272.7</ele>
        <time>2013-03-13T11:37:16Z</time>
      </trkpt>
      <trkpt lat="50.43623" lon="5.33649">
        <ele>272.7</ele>
        <time>2013-03-13T11:37:23Z</time>
      </trkpt>
      <trkpt lat="50.43623" lon="5.33649">
        <ele>237.6</ele>
        <time>2013-03-13T11:37:23Z</time>
      </trkpt>
      <trkpt lat="50.43613" lon="5.33612">
        <ele>273.3</ele>
        <time>2013-03-13T11:37:32Z</time>
      </trkpt>
      <trkpt lat="50.43613" lon="5.33612">
        <ele>238.8</ele>
        <time>2013-03-13T11:37:32Z</time>
      </trkpt>
      <trkpt lat="50.43602" lon="5.33584">
        <ele>277.1</ele>
        <time>2013-03-13T11:37:37Z</time>
      </trkpt>
      <trkpt lat="50.43589" lon="5.33554">
        <ele>279.1</ele>
        <time>2013-03-13T11:37:43Z</time>
      </trkpt>
      <trkpt lat="50.43575" lon="5.33519">
        <ele>280.5</ele>
        <time>2013-03-13T11:37:49Z</time>
      </trkpt>
      <trkpt lat="50.43564" lon="5.33493">
        <ele>280.9</ele>
        <time>2013-03-13T11:37:55Z</time>
      </trkpt>
      <trkpt lat="50.43552" lon="5.33464">
        <ele>280.9</ele>
        <time>2013-03-13T11:38:02Z</time>
      </trkpt>
      <trkpt lat="50.43538" lon="5.33431">
        <ele>280.7</ele>
        <time>2013-03-13T11:38:10Z</time>
      </trkpt>
      <trkpt lat="50.43517" lon="5.33391">
        <ele>281.4</ele>
        <time>2013-03-13T11:38:19Z</time>
      </trkpt>
      <trkpt lat="50.43504" lon="5.3336">
        <ele>282.8</ele>
        <time>2013-03-13T11:38:25Z</time>
      </trkpt>
      <trkpt lat="50.43497" lon="5.33346">
        <ele>282.5</ele>
        <time>2013-03-13T11:38:28Z</time>
      </trkpt>
      <trkpt lat="50.4348" lon="5.33313">
        <ele>282.8</ele>
        <time>2013-03-13T11:38:35Z</time>
      </trkpt>
      <trkpt lat="50.4347" lon="5.33297">
        <ele>281.1</ele>
        <time>2013-03-13T11:38:39Z</time>
      </trkpt>
      <trkpt lat="50.43452" lon="5.33268">
        <ele>281.3</ele>
        <time>2013-03-13T11:38:46Z</time>
      </trkpt>
      <trkpt lat="50.43436" lon="5.33244">
        <ele>281.4</ele>
        <time>2013-03-13T11:38:52Z</time>
      </trkpt>
      <trkpt lat="50.43419" lon="5.33214">
        <ele>282.6</ele>
        <time>2013-03-13T11:39:00Z</time>
      </trkpt>
      <trkpt lat="50.43405" lon="5.33185">
        <ele>282.1</ele>
        <time>2013-03-13T11:39:06Z</time>
      </trkpt>
      <trkpt lat="50.43398" lon="5.3317">
        <ele>282.4</ele>
        <time>2013-03-13T11:39:09Z</time>
      </trkpt>
      <trkpt lat="50.4339" lon="5.33153">
        <ele>282.5</ele>
        <time>2013-03-13T11:39:13Z</time>
      </trkpt>
      <trkpt lat="50.4338" lon="5.33129">
        <ele>283</ele>
        <time>2013-03-13T11:39:19Z</time>
      </trkpt>
      <trkpt lat="50.43367" lon="5.33096">
        <ele>284.1</ele>
        <time>2013-03-13T11:39:26Z</time>
      </trkpt>
      <trkpt lat="50.43359" lon="5.33074">
        <ele>284.8</ele>
        <time>2013-03-13T11:39:30Z</time>
      </trkpt>
      <trkpt lat="50.43347" lon="5.33047">
        <ele>285.7</ele>
        <time>2013-03-13T11:39:37Z</time>
      </trkpt>
      <trkpt lat="50.43334" lon="5.33013">
        <ele>286.4</ele>
        <time>2013-03-13T11:39:43Z</time>
      </trkpt>
      <trkpt lat="50.43325" lon="5.32987">
        <ele>286.2</ele>
        <time>2013-03-13T11:39:48Z</time>
      </trkpt>
      <trkpt lat="50.43313" lon="5.32958">
        <ele>288.5</ele>
        <time>2013-03-13T11:39:56Z</time>
      </trkpt>
      <trkpt lat="50.43313" lon="5.32958">
        <ele>288.5</ele>
        <time>2013-03-13T11:40:01Z</time>
      </trkpt>
      <trkpt lat="50.43313" lon="5.32958">
        <ele>249</ele>
        <time>2013-03-13T11:40:01Z</time>
      </trkpt>
      <trkpt lat="50.43304" lon="5.32929">
        <ele>290.5</ele>
        <time>2013-03-13T11:40:24Z</time>
      </trkpt>
      <trkpt lat="50.43304" lon="5.32929">
        <ele>249.1</ele>
        <time>2013-03-13T11:40:24Z</time>
      </trkpt>
      <trkpt lat="50.43293" lon="5.32912">
        <ele>292.1</ele>
        <time>2013-03-13T11:40:29Z</time>
      </trkpt>
      <trkpt lat="50.43276" lon="5.32881">
        <ele>292.1</ele>
        <time>2013-03-13T11:40:36Z</time>
      </trkpt>
      <trkpt lat="50.43263" lon="5.32851">
        <ele>292.2</ele>
        <time>2013-03-13T11:40:42Z</time>
      </trkpt>
      <trkpt lat="50.43248" lon="5.32821">
        <ele>292.6</ele>
        <time>2013-03-13T11:40:49Z</time>
      </trkpt>
      <trkpt lat="50.43232" lon="5.32788">
        <ele>290.2</ele>
        <time>2013-03-13T11:40:56Z</time>
      </trkpt>
      <trkpt lat="50.43224" lon="5.3277">
        <ele>293.9</ele>
        <time>2013-03-13T11:40:59Z</time>
      </trkpt>
      <trkpt lat="50.4321" lon="5.32744">
        <ele>292.8</ele>
        <time>2013-03-13T11:41:04Z</time>
      </trkpt>
      <trkpt lat="50.43187" lon="5.32707">
        <ele>293.7</ele>
        <time>2013-03-13T11:41:10Z</time>
      </trkpt>
      <trkpt lat="50.43172" lon="5.32674">
        <ele>292.5</ele>
        <time>2013-03-13T11:41:15Z</time>
      </trkpt>
      <trkpt lat="50.43151" lon="5.32639">
        <ele>292.3</ele>
        <time>2013-03-13T11:41:21Z</time>
      </trkpt>
      <trkpt lat="50.43129" lon="5.32602">
        <ele>292.2</ele>
        <time>2013-03-13T11:41:28Z</time>
      </trkpt>
      <trkpt lat="50.43112" lon="5.32566">
        <ele>291.8</ele>
        <time>2013-03-13T11:41:33Z</time>
      </trkpt>
      <trkpt lat="50.43088" lon="5.32513">
        <ele>293.6</ele>
        <time>2013-03-13T11:41:40Z</time>
      </trkpt>
      <trkpt lat="50.43066" lon="5.32472">
        <ele>293.6</ele>
        <time>2013-03-13T11:41:46Z</time>
      </trkpt>
      <trkpt lat="50.43052" lon="5.32445">
        <ele>293.1</ele>
        <time>2013-03-13T11:41:50Z</time>
      </trkpt>
      <trkpt lat="50.43032" lon="5.3241">
        <ele>293.2</ele>
        <time>2013-03-13T11:41:56Z</time>
      </trkpt>
      <trkpt lat="50.43013" lon="5.32384">
        <ele>294.4</ele>
        <time>2013-03-13T11:42:01Z</time>
      </trkpt>
      <trkpt lat="50.42993" lon="5.3235">
        <ele>294.6</ele>
        <time>2013-03-13T11:42:06Z</time>
      </trkpt>
      <trkpt lat="50.42974" lon="5.32316">
        <ele>294.6</ele>
        <time>2013-03-13T11:42:12Z</time>
      </trkpt>
      <trkpt lat="50.42956" lon="5.32282">
        <ele>295.3</ele>
        <time>2013-03-13T11:42:16Z</time>
      </trkpt>
      <trkpt lat="50.42933" lon="5.32263">
        <ele>295.1</ele>
        <time>2013-03-13T11:42:21Z</time>
      </trkpt>
      <trkpt lat="50.42903" lon="5.3228">
        <ele>294.4</ele>
        <time>2013-03-13T11:42:27Z</time>
      </trkpt>
      <trkpt lat="50.42866" lon="5.32291">
        <ele>294.9</ele>
        <time>2013-03-13T11:42:33Z</time>
      </trkpt>
      <trkpt lat="50.42838" lon="5.32296">
        <ele>293.8</ele>
        <time>2013-03-13T11:42:38Z</time>
      </trkpt>
      <trkpt lat="50.42813" lon="5.32306">
        <ele>292.2</ele>
        <time>2013-03-13T11:42:43Z</time>
      </trkpt>
      <trkpt lat="50.42778" lon="5.32296">
        <ele>291.4</ele>
        <time>2013-03-13T11:42:49Z</time>
      </trkpt>
      <trkpt lat="50.42761" lon="5.32287">
        <ele>291.3</ele>
        <time>2013-03-13T11:42:52Z</time>
      </trkpt>
      <trkpt lat="50.42728" lon="5.32268">
        <ele>287.6</ele>
        <time>2013-03-13T11:42:58Z</time>
      </trkpt>
      <trkpt lat="50.42713" lon="5.32255">
        <ele>287.8</ele>
        <time>2013-03-13T11:43:02Z</time>
      </trkpt>
      <trkpt lat="50.42692" lon="5.32214">
        <ele>288.7</ele>
        <time>2013-03-13T11:43:09Z</time>
      </trkpt>
      <trkpt lat="50.42673" lon="5.32198">
        <ele>289.1</ele>
        <time>2013-03-13T11:43:14Z</time>
      </trkpt>
      <trkpt lat="50.42645" lon="5.32185">
        <ele>289.9</ele>
        <time>2013-03-13T11:43:19Z</time>
      </trkpt>
      <trkpt lat="50.42626" lon="5.32158">
        <ele>288.8</ele>
        <time>2013-03-13T11:43:25Z</time>
      </trkpt>
      <trkpt lat="50.42597" lon="5.32119">
        <ele>287.9</ele>
        <time>2013-03-13T11:43:32Z</time>
      </trkpt>
      <trkpt lat="50.42575" lon="5.32104">
        <ele>287.7</ele>
        <time>2013-03-13T11:43:37Z</time>
      </trkpt>
      <trkpt lat="50.42552" lon="5.3208">
        <ele>287.7</ele>
        <time>2013-03-13T11:43:42Z</time>
      </trkpt>
      <trkpt lat="50.42524" lon="5.32051">
        <ele>286.9</ele>
        <time>2013-03-13T11:43:48Z</time>
      </trkpt>
      <trkpt lat="50.42497" lon="5.32017">
        <ele>286.5</ele>
        <time>2013-03-13T11:43:53Z</time>
      </trkpt>
      <trkpt lat="50.42479" lon="5.31996">
        <ele>286.2</ele>
        <time>2013-03-13T11:43:58Z</time>
      </trkpt>
      <trkpt lat="50.42456" lon="5.31962">
        <ele>286.5</ele>
        <time>2013-03-13T11:44:03Z</time>
      </trkpt>
      <trkpt lat="50.42433" lon="5.31929">
        <ele>284.4</ele>
        <time>2013-03-13T11:44:09Z</time>
      </trkpt>
      <trkpt lat="50.42416" lon="5.31899">
        <ele>284.3</ele>
        <time>2013-03-13T11:44:15Z</time>
      </trkpt>
      <trkpt lat="50.42395" lon="5.31858">
        <ele>284.5</ele>
        <time>2013-03-13T11:44:23Z</time>
      </trkpt>
      <trkpt lat="50.42377" lon="5.3182">
        <ele>285</ele>
        <time>2013-03-13T11:44:31Z</time>
      </trkpt>
      <trkpt lat="50.42363" lon="5.31789">
        <ele>286</ele>
        <time>2013-03-13T11:44:38Z</time>
      </trkpt>
      <trkpt lat="50.42343" lon="5.31758">
        <ele>285.6</ele>
        <time>2013-03-13T11:44:43Z</time>
      </trkpt>
      <trkpt lat="50.42333" lon="5.31744">
        <ele>285</ele>
        <time>2013-03-13T11:44:46Z</time>
      </trkpt>
      <trkpt lat="50.4231" lon="5.31725">
        <ele>286.2</ele>
        <time>2013-03-13T11:44:53Z</time>
      </trkpt>
      <trkpt lat="50.42294" lon="5.31706">
        <ele>284.3</ele>
        <time>2013-03-13T11:44:59Z</time>
      </trkpt>
      <trkpt lat="50.42281" lon="5.31686">
        <ele>285</ele>
        <time>2013-03-13T11:45:03Z</time>
      </trkpt>
      <trkpt lat="50.42263" lon="5.31649">
        <ele>286.2</ele>
        <time>2013-03-13T11:45:09Z</time>
      </trkpt>
      <trkpt lat="50.42247" lon="5.31609">
        <ele>284.9</ele>
        <time>2013-03-13T11:45:15Z</time>
      </trkpt>
      <trkpt lat="50.42237" lon="5.3158">
        <ele>286.3</ele>
        <time>2013-03-13T11:45:20Z</time>
      </trkpt>
      <trkpt lat="50.42223" lon="5.31548">
        <ele>288.4</ele>
        <time>2013-03-13T11:45:26Z</time>
      </trkpt>
      <trkpt lat="50.42213" lon="5.31523">
        <ele>289</ele>
        <time>2013-03-13T11:45:30Z</time>
      </trkpt>
      <trkpt lat="50.42199" lon="5.31493">
        <ele>289.4</ele>
        <time>2013-03-13T11:45:35Z</time>
      </trkpt>
      <trkpt lat="50.42179" lon="5.31462">
        <ele>287.9</ele>
        <time>2013-03-13T11:45:41Z</time>
      </trkpt>
      <trkpt lat="50.42163" lon="5.31425">
        <ele>288.6</ele>
        <time>2013-03-13T11:45:47Z</time>
      </trkpt>
      <trkpt lat="50.42147" lon="5.31387">
        <ele>286.6</ele>
        <time>2013-03-13T11:45:53Z</time>
      </trkpt>
      <trkpt lat="50.42135" lon="5.31357">
        <ele>286</ele>
        <time>2013-03-13T11:45:58Z</time>
      </trkpt>
      <trkpt lat="50.42116" lon="5.31317">
        <ele>289.5</ele>
        <time>2013-03-13T11:46:04Z</time>
      </trkpt>
      <trkpt lat="50.42104" lon="5.31289">
        <ele>289.8</ele>
        <time>2013-03-13T11:46:08Z</time>
      </trkpt>
      <trkpt lat="50.42085" lon="5.31251">
        <ele>289.8</ele>
        <time>2013-03-13T11:46:14Z</time>
      </trkpt>
      <trkpt lat="50.42074" lon="5.31226">
        <ele>289.8</ele>
        <time>2013-03-13T11:46:18Z</time>
      </trkpt>
      <trkpt lat="50.42058" lon="5.31182">
        <ele>290.1</ele>
        <time>2013-03-13T11:46:24Z</time>
      </trkpt>
      <trkpt lat="50.42046" lon="5.31146">
        <ele>288.8</ele>
        <time>2013-03-13T11:46:29Z</time>
      </trkpt>
      <trkpt lat="50.42032" lon="5.31106">
        <ele>288.8</ele>
        <time>2013-03-13T11:46:34Z</time>
      </trkpt>
      <trkpt lat="50.42024" lon="5.31073">
        <ele>288.5</ele>
        <time>2013-03-13T11:46:39Z</time>
      </trkpt>
      <trkpt lat="50.42045" lon="5.31031">
        <ele>288.5</ele>
        <time>2013-03-13T11:46:46Z</time>
      </trkpt>
      <trkpt lat="50.4203" lon="5.30984">
        <ele>288.6</ele>
        <time>2013-03-13T11:46:52Z</time>
      </trkpt>
      <trkpt lat="50.42008" lon="5.30953">
        <ele>289</ele>
        <time>2013-03-13T11:46:57Z</time>
      </trkpt>
      <trkpt lat="50.41982" lon="5.30917">
        <ele>289.5</ele>
        <time>2013-03-13T11:47:03Z</time>
      </trkpt>
      <trkpt lat="50.41958" lon="5.30879">
        <ele>289.6</ele>
        <time>2013-03-13T11:47:09Z</time>
      </trkpt>
      <trkpt lat="50.41944" lon="5.30839">
        <ele>289.9</ele>
        <time>2013-03-13T11:47:13Z</time>
      </trkpt>
      <trkpt lat="50.41923" lon="5.30779">
        <ele>289.9</ele>
        <time>2013-03-13T11:47:19Z</time>
      </trkpt>
      <trkpt lat="50.41905" lon="5.30724">
        <ele>289.5</ele>
        <time>2013-03-13T11:47:25Z</time>
      </trkpt>
      <trkpt lat="50.41887" lon="5.30682">
        <ele>289</ele>
        <time>2013-03-13T11:47:30Z</time>
      </trkpt>
      <trkpt lat="50.41855" lon="5.30652">
        <ele>288.9</ele>
        <time>2013-03-13T11:47:36Z</time>
      </trkpt>
      <trkpt lat="50.41841" lon="5.30644">
        <ele>288.1</ele>
        <time>2013-03-13T11:47:39Z</time>
      </trkpt>
      <trkpt lat="50.41808" lon="5.30629">
        <ele>287.4</ele>
        <time>2013-03-13T11:47:45Z</time>
      </trkpt>
      <trkpt lat="50.41773" lon="5.306">
        <ele>288.1</ele>
        <time>2013-03-13T11:47:51Z</time>
      </trkpt>
      <trkpt lat="50.41733" lon="5.30565">
        <ele>288.7</ele>
        <time>2013-03-13T11:47:58Z</time>
      </trkpt>
      <trkpt lat="50.41705" lon="5.30539">
        <ele>287.8</ele>
        <time>2013-03-13T11:48:03Z</time>
      </trkpt>
      <trkpt lat="50.41675" lon="5.30518">
        <ele>286.7</ele>
        <time>2013-03-13T11:48:09Z</time>
      </trkpt>
      <trkpt lat="50.41647" lon="5.30491">
        <ele>286.5</ele>
        <time>2013-03-13T11:48:16Z</time>
      </trkpt>
      <trkpt lat="50.41621" lon="5.30463">
        <ele>286.8</ele>
        <time>2013-03-13T11:48:22Z</time>
      </trkpt>
      <trkpt lat="50.41603" lon="5.30447">
        <ele>286.2</ele>
        <time>2013-03-13T11:48:27Z</time>
      </trkpt>
      <trkpt lat="50.41582" lon="5.30429">
        <ele>285.9</ele>
        <time>2013-03-13T11:48:32Z</time>
      </trkpt>
      <trkpt lat="50.41557" lon="5.30405">
        <ele>285.4</ele>
        <time>2013-03-13T11:48:38Z</time>
      </trkpt>
      <trkpt lat="50.41539" lon="5.30387">
        <ele>285.3</ele>
        <time>2013-03-13T11:48:42Z</time>
      </trkpt>
      <trkpt lat="50.41514" lon="5.30363">
        <ele>285.7</ele>
        <time>2013-03-13T11:48:48Z</time>
      </trkpt>
      <trkpt lat="50.41483" lon="5.30327">
        <ele>285.9</ele>
        <time>2013-03-13T11:48:54Z</time>
      </trkpt>
      <trkpt lat="50.41462" lon="5.30307">
        <ele>285.1</ele>
        <time>2013-03-13T11:48:59Z</time>
      </trkpt>
      <trkpt lat="50.41443" lon="5.30285">
        <ele>285.4</ele>
        <time>2013-03-13T11:49:04Z</time>
      </trkpt>
      <trkpt lat="50.41414" lon="5.30251">
        <ele>285.6</ele>
        <time>2013-03-13T11:49:11Z</time>
      </trkpt>
      <trkpt lat="50.41393" lon="5.30229">
        <ele>283.7</ele>
        <time>2013-03-13T11:49:16Z</time>
      </trkpt>
      <trkpt lat="50.41377" lon="5.30213">
        <ele>283.5</ele>
        <time>2013-03-13T11:49:20Z</time>
      </trkpt>
      <trkpt lat="50.41356" lon="5.30189">
        <ele>283.2</ele>
        <time>2013-03-13T11:49:26Z</time>
      </trkpt>
      <trkpt lat="50.41334" lon="5.30167">
        <ele>283.2</ele>
        <time>2013-03-13T11:49:31Z</time>
      </trkpt>
      <trkpt lat="50.4131" lon="5.30138">
        <ele>283.2</ele>
        <time>2013-03-13T11:49:37Z</time>
      </trkpt>
      <trkpt lat="50.4129" lon="5.30097">
        <ele>282.9</ele>
        <time>2013-03-13T11:49:43Z</time>
      </trkpt>
      <trkpt lat="50.41277" lon="5.30059">
        <ele>282.1</ele>
        <time>2013-03-13T11:49:49Z</time>
      </trkpt>
      <trkpt lat="50.41263" lon="5.30026">
        <ele>282.9</ele>
        <time>2013-03-13T11:49:55Z</time>
      </trkpt>
      <trkpt lat="50.41249" lon="5.29996">
        <ele>284</ele>
        <time>2013-03-13T11:50:01Z</time>
      </trkpt>
      <trkpt lat="50.41233" lon="5.29966">
        <ele>284</ele>
        <time>2013-03-13T11:50:08Z</time>
      </trkpt>
      <trkpt lat="50.41217" lon="5.29931">
        <ele>282.8</ele>
        <time>2013-03-13T11:50:16Z</time>
      </trkpt>
      <trkpt lat="50.412" lon="5.29888">
        <ele>282.3</ele>
        <time>2013-03-13T11:50:22Z</time>
      </trkpt>
      <trkpt lat="50.41184" lon="5.29845">
        <ele>282.1</ele>
        <time>2013-03-13T11:50:28Z</time>
      </trkpt>
      <trkpt lat="50.41175" lon="5.29826">
        <ele>281.9</ele>
        <time>2013-03-13T11:50:31Z</time>
      </trkpt>
      <trkpt lat="50.41158" lon="5.29796">
        <ele>283.8</ele>
        <time>2013-03-13T11:50:37Z</time>
      </trkpt>
      <trkpt lat="50.41148" lon="5.29772">
        <ele>284.1</ele>
        <time>2013-03-13T11:50:41Z</time>
      </trkpt>
      <trkpt lat="50.41134" lon="5.2975">
        <ele>284.6</ele>
        <time>2013-03-13T11:50:46Z</time>
      </trkpt>
      <trkpt lat="50.41121" lon="5.29725">
        <ele>286.5</ele>
        <time>2013-03-13T11:50:52Z</time>
      </trkpt>
      <trkpt lat="50.41099" lon="5.29687">
        <ele>287.7</ele>
        <time>2013-03-13T11:51:00Z</time>
      </trkpt>
      <trkpt lat="50.41082" lon="5.29656">
        <ele>288.7</ele>
        <time>2013-03-13T11:51:06Z</time>
      </trkpt>
      <trkpt lat="50.41067" lon="5.2963">
        <ele>287.8</ele>
        <time>2013-03-13T11:51:11Z</time>
      </trkpt>
      <trkpt lat="50.41044" lon="5.29592">
        <ele>288</ele>
        <time>2013-03-13T11:51:17Z</time>
      </trkpt>
      <trkpt lat="50.41026" lon="5.29565">
        <ele>288.2</ele>
        <time>2013-03-13T11:51:22Z</time>
      </trkpt>
      <trkpt lat="50.41011" lon="5.29541">
        <ele>287.4</ele>
        <time>2013-03-13T11:51:28Z</time>
      </trkpt>
      <trkpt lat="50.40998" lon="5.2952">
        <ele>288.9</ele>
        <time>2013-03-13T11:51:33Z</time>
      </trkpt>
      <trkpt lat="50.40986" lon="5.29493">
        <ele>287.1</ele>
        <time>2013-03-13T11:51:39Z</time>
      </trkpt>
      <trkpt lat="50.40972" lon="5.29456">
        <ele>287.7</ele>
        <time>2013-03-13T11:51:46Z</time>
      </trkpt>
      <trkpt lat="50.40957" lon="5.29427">
        <ele>286.9</ele>
        <time>2013-03-13T11:51:52Z</time>
      </trkpt>
      <trkpt lat="50.40939" lon="5.29392">
        <ele>285.7</ele>
        <time>2013-03-13T11:51:59Z</time>
      </trkpt>
      <trkpt lat="50.40925" lon="5.29366">
        <ele>283.7</ele>
        <time>2013-03-13T11:52:05Z</time>
      </trkpt>
      <trkpt lat="50.40904" lon="5.29333">
        <ele>284.8</ele>
        <time>2013-03-13T11:52:12Z</time>
      </trkpt>
      <trkpt lat="50.4088" lon="5.29301">
        <ele>284.5</ele>
        <time>2013-03-13T11:52:18Z</time>
      </trkpt>
      <trkpt lat="50.40863" lon="5.2928">
        <ele>284.9</ele>
        <time>2013-03-13T11:52:24Z</time>
      </trkpt>
      <trkpt lat="50.40849" lon="5.29255">
        <ele>285.1</ele>
        <time>2013-03-13T11:52:29Z</time>
      </trkpt>
      <trkpt lat="50.40832" lon="5.29219">
        <ele>284.2</ele>
        <time>2013-03-13T11:52:36Z</time>
      </trkpt>
      <trkpt lat="50.40818" lon="5.29203">
        <ele>283.9</ele>
        <time>2013-03-13T11:52:42Z</time>
      </trkpt>
      <trkpt lat="50.40806" lon="5.29208">
        <ele>283.6</ele>
        <time>2013-03-13T11:52:47Z</time>
      </trkpt>
      <trkpt lat="50.40802" lon="5.29211">
        <ele>284.7</ele>
        <time>2013-03-13T11:52:49Z</time>
      </trkpt>
      <trkpt lat="50.40802" lon="5.29211">
        <ele>244</ele>
        <time>2013-03-13T11:52:55Z</time>
      </trkpt>
      <trkpt lat="50.40802" lon="5.29211">
        <ele>244</ele>
        <time>2013-03-13T11:53:10Z</time>
      </trkpt>
      <trkpt lat="50.40781" lon="5.29206">
        <ele>288.4</ele>
        <time>2013-03-13T11:53:10Z</time>
      </trkpt>
      <trkpt lat="50.40763" lon="5.29154">
        <ele>289.4</ele>
        <time>2013-03-13T11:53:17Z</time>
      </trkpt>
      <trkpt lat="50.40733" lon="5.29084">
        <ele>288.9</ele>
        <time>2013-03-13T11:53:24Z</time>
      </trkpt>
      <trkpt lat="50.40708" lon="5.29044">
        <ele>289.7</ele>
        <time>2013-03-13T11:53:30Z</time>
      </trkpt>
      <trkpt lat="50.40681" lon="5.2901">
        <ele>290.6</ele>
        <time>2013-03-13T11:53:36Z</time>
      </trkpt>
      <trkpt lat="50.40665" lon="5.28983">
        <ele>288.9</ele>
        <time>2013-03-13T11:53:42Z</time>
      </trkpt>
      <trkpt lat="50.40643" lon="5.28947">
        <ele>289.3</ele>
        <time>2013-03-13T11:53:48Z</time>
      </trkpt>
      <trkpt lat="50.40626" lon="5.28922">
        <ele>289</ele>
        <time>2013-03-13T11:53:53Z</time>
      </trkpt>
      <trkpt lat="50.40605" lon="5.2889">
        <ele>289</ele>
        <time>2013-03-13T11:53:59Z</time>
      </trkpt>
      <trkpt lat="50.40581" lon="5.28861">
        <ele>289.4</ele>
        <time>2013-03-13T11:54:05Z</time>
      </trkpt>
      <trkpt lat="50.40568" lon="5.28847">
        <ele>288.8</ele>
        <time>2013-03-13T11:54:08Z</time>
      </trkpt>
      <trkpt lat="50.40536" lon="5.28838">
        <ele>287.5</ele>
        <time>2013-03-13T11:54:14Z</time>
      </trkpt>
      <trkpt lat="50.40503" lon="5.28849">
        <ele>286</ele>
        <time>2013-03-13T11:54:20Z</time>
      </trkpt>
      <trkpt lat="50.40462" lon="5.28834">
        <ele>285.3</ele>
        <time>2013-03-13T11:54:26Z</time>
      </trkpt>
      <trkpt lat="50.40423" lon="5.28805">
        <ele>284.8</ele>
        <time>2013-03-13T11:54:32Z</time>
      </trkpt>
      <trkpt lat="50.40386" lon="5.28779">
        <ele>283.3</ele>
        <time>2013-03-13T11:54:37Z</time>
      </trkpt>
      <trkpt lat="50.40333" lon="5.28785">
        <ele>283.4</ele>
        <time>2013-03-13T11:54:43Z</time>
      </trkpt>
      <trkpt lat="50.40309" lon="5.28772">
        <ele>283.1</ele>
        <time>2013-03-13T11:54:49Z</time>
      </trkpt>
      <trkpt lat="50.40337" lon="5.28725">
        <ele>282.6</ele>
        <time>2013-03-13T11:54:56Z</time>
      </trkpt>
      <trkpt lat="50.40348" lon="5.28671">
        <ele>280.7</ele>
        <time>2013-03-13T11:55:01Z</time>
      </trkpt>
      <trkpt lat="50.40326" lon="5.2861">
        <ele>278</ele>
        <time>2013-03-13T11:55:07Z</time>
      </trkpt>
      <trkpt lat="50.40305" lon="5.28572">
        <ele>276</ele>
        <time>2013-03-13T11:55:13Z</time>
      </trkpt>
      <trkpt lat="50.40277" lon="5.28574">
        <ele>273.4</ele>
        <time>2013-03-13T11:55:21Z</time>
      </trkpt>
      <trkpt lat="50.40242" lon="5.28568">
        <ele>272.9</ele>
        <time>2013-03-13T11:55:29Z</time>
      </trkpt>
      <trkpt lat="50.40214" lon="5.28557">
        <ele>272.8</ele>
        <time>2013-03-13T11:55:35Z</time>
      </trkpt>
      <trkpt lat="50.40204" lon="5.28553">
        <ele>272.9</ele>
        <time>2013-03-13T11:55:38Z</time>
      </trkpt>
      <trkpt lat="50.40189" lon="5.28549">
        <ele>272.1</ele>
        <time>2013-03-13T11:55:42Z</time>
      </trkpt>
      <trkpt lat="50.40169" lon="5.28549">
        <ele>271.7</ele>
        <time>2013-03-13T11:55:47Z</time>
      </trkpt>
      <trkpt lat="50.40155" lon="5.28552">
        <ele>270.6</ele>
        <time>2013-03-13T11:55:51Z</time>
      </trkpt>
      <trkpt lat="50.40132" lon="5.28554">
        <ele>270.1</ele>
        <time>2013-03-13T11:55:57Z</time>
      </trkpt>
      <trkpt lat="50.40109" lon="5.28556">
        <ele>269.5</ele>
        <time>2013-03-13T11:56:03Z</time>
      </trkpt>
      <trkpt lat="50.40096" lon="5.28563">
        <ele>268</ele>
        <time>2013-03-13T11:56:08Z</time>
      </trkpt>
      <trkpt lat="50.40083" lon="5.28578">
        <ele>268.4</ele>
        <time>2013-03-13T11:56:15Z</time>
      </trkpt>
      <trkpt lat="50.40077" lon="5.28611">
        <ele>268.9</ele>
        <time>2013-03-13T11:56:23Z</time>
      </trkpt>
      <trkpt lat="50.4008" lon="5.28633">
        <ele>268.8</ele>
        <time>2013-03-13T11:56:28Z</time>
      </trkpt>
      <trkpt lat="50.40081" lon="5.28662">
        <ele>267.4</ele>
        <time>2013-03-13T11:56:35Z</time>
      </trkpt>
      <trkpt lat="50.40075" lon="5.28688">
        <ele>266.8</ele>
        <time>2013-03-13T11:56:39Z</time>
      </trkpt>
      <trkpt lat="50.40053" lon="5.28735">
        <ele>265.4</ele>
        <time>2013-03-13T11:56:46Z</time>
      </trkpt>
      <trkpt lat="50.40025" lon="5.28765">
        <ele>265.3</ele>
        <time>2013-03-13T11:56:52Z</time>
      </trkpt>
      <trkpt lat="50.4" lon="5.28786">
        <ele>263.3</ele>
        <time>2013-03-13T11:56:57Z</time>
      </trkpt>
      <trkpt lat="50.39969" lon="5.28818">
        <ele>261.2</ele>
        <time>2013-03-13T11:57:03Z</time>
      </trkpt>
      <trkpt lat="50.39949" lon="5.28849">
        <ele>259.9</ele>
        <time>2013-03-13T11:57:09Z</time>
      </trkpt>
      <trkpt lat="50.39916" lon="5.28876">
        <ele>258.6</ele>
        <time>2013-03-13T11:57:14Z</time>
      </trkpt>
      <trkpt lat="50.39897" lon="5.28888">
        <ele>259.5</ele>
        <time>2013-03-13T11:57:19Z</time>
      </trkpt>
      <trkpt lat="50.39874" lon="5.28902">
        <ele>258.9</ele>
        <time>2013-03-13T11:57:25Z</time>
      </trkpt>
      <trkpt lat="50.39852" lon="5.28918">
        <ele>260.6</ele>
        <time>2013-03-13T11:57:32Z</time>
      </trkpt>
      <trkpt lat="50.39828" lon="5.28938">
        <ele>261.7</ele>
        <time>2013-03-13T11:57:38Z</time>
      </trkpt>
      <trkpt lat="50.39808" lon="5.28959">
        <ele>260.2</ele>
        <time>2013-03-13T11:57:45Z</time>
      </trkpt>
      <trkpt lat="50.39802" lon="5.28992">
        <ele>259.4</ele>
        <time>2013-03-13T11:57:51Z</time>
      </trkpt>
      <trkpt lat="50.39796" lon="5.29029">
        <ele>260</ele>
        <time>2013-03-13T11:57:57Z</time>
      </trkpt>
      <trkpt lat="50.39783" lon="5.29058">
        <ele>258.2</ele>
        <time>2013-03-13T11:58:03Z</time>
      </trkpt>
      <trkpt lat="50.39771" lon="5.29079">
        <ele>257.5</ele>
        <time>2013-03-13T11:58:09Z</time>
      </trkpt>
      <trkpt lat="50.39765" lon="5.29095">
        <ele>257.4</ele>
        <time>2013-03-13T11:58:14Z</time>
      </trkpt>
      <trkpt lat="50.39736" lon="5.29127">
        <ele>257.3</ele>
        <time>2013-03-13T11:58:24Z</time>
      </trkpt>
      <trkpt lat="50.39727" lon="5.29143">
        <ele>256.8</ele>
        <time>2013-03-13T11:58:29Z</time>
      </trkpt>
      <trkpt lat="50.39716" lon="5.29163">
        <ele>256.5</ele>
        <time>2013-03-13T11:58:37Z</time>
      </trkpt>
      <trkpt lat="50.39714" lon="5.29167">
        <ele>256.5</ele>
        <time>2013-03-13T11:58:39Z</time>
      </trkpt>
      <trkpt lat="50.39714" lon="5.29167">
        <ele>232.6</ele>
        <time>2013-03-13T11:58:44Z</time>
      </trkpt>
      <trkpt lat="50.39714" lon="5.29167">
        <ele>232.6</ele>
        <time>2013-03-13T11:58:52Z</time>
      </trkpt>
      <trkpt lat="50.39717" lon="5.29179">
        <ele>258.7</ele>
        <time>2013-03-13T11:58:52Z</time>
      </trkpt>
      <trkpt lat="50.39717" lon="5.29179">
        <ele>258.7</ele>
        <time>2013-03-13T11:59:00Z</time>
      </trkpt>
      <trkpt lat="50.39717" lon="5.29179">
        <ele>232.4</ele>
        <time>2013-03-13T11:59:00Z</time>
      </trkpt>
      <trkpt lat="50.39717" lon="5.29179">
        <ele>232.4</ele>
        <time>2013-03-13T11:59:42Z</time>
      </trkpt>
      <trkpt lat="50.397" lon="5.29147">
        <ele>272.8</ele>
        <time>2013-03-13T11:59:42Z</time>
      </trkpt>
      <trkpt lat="50.39706" lon="5.29149">
        <ele>272.7</ele>
        <time>2013-03-13T11:59:45Z</time>
      </trkpt>
      <trkpt lat="50.39706" lon="5.29149">
        <ele>233.9</ele>
        <time>2013-03-13T11:59:53Z</time>
      </trkpt>
      <trkpt lat="50.39706" lon="5.29149">
        <ele>233.9</ele>
        <time>2013-03-13T12:00:55Z</time>
      </trkpt>
      <trkpt lat="50.39702" lon="5.29166">
        <ele>274.6</ele>
        <time>2013-03-13T12:00:55Z</time>
      </trkpt>
      <trkpt lat="50.39696" lon="5.29173">
        <ele>274.5</ele>
        <time>2013-03-13T12:01:02Z</time>
      </trkpt>
      <trkpt lat="50.39696" lon="5.29173">
        <ele>233.9</ele>
        <time>2013-03-13T12:01:10Z</time>
      </trkpt>
      <trkpt lat="50.39696" lon="5.29173">
        <ele>233.9</ele>
        <time>2013-03-13T12:02:08Z</time>
      </trkpt>
      <trkpt lat="50.397" lon="5.29161">
        <ele>275.4</ele>
        <time>2013-03-13T12:02:08Z</time>
      </trkpt>
      <trkpt lat="50.39706" lon="5.29148">
        <ele>273.4</ele>
        <time>2013-03-13T12:02:17Z</time>
      </trkpt>
      <trkpt lat="50.39706" lon="5.29148">
        <ele>273.4</ele>
        <time>2013-03-13T12:02:24Z</time>
      </trkpt>
      <trkpt lat="50.39706" lon="5.29148">
        <ele>233.9</ele>
        <time>2013-03-13T12:02:24Z</time>
      </trkpt>
      <trkpt lat="50.39706" lon="5.29148">
        <ele>233.9</ele>
        <time>2013-03-13T12:03:32Z</time>
      </trkpt>
      <trkpt lat="50.39694" lon="5.29178">
        <ele>264.4</ele>
        <time>2013-03-13T12:03:32Z</time>
      </trkpt>
      <trkpt lat="50.39684" lon="5.29198">
        <ele>265.5</ele>
        <time>2013-03-13T12:03:36Z</time>
      </trkpt>
      <trkpt lat="50.3967" lon="5.29224">
        <ele>266.3</ele>
        <time>2013-03-13T12:03:42Z</time>
      </trkpt>
      <trkpt lat="50.39656" lon="5.29245">
        <ele>265.4</ele>
        <time>2013-03-13T12:03:47Z</time>
      </trkpt>
      <trkpt lat="50.39639" lon="5.29273">
        <ele>266.6</ele>
        <time>2013-03-13T12:03:54Z</time>
      </trkpt>
      <trkpt lat="50.39617" lon="5.29286">
        <ele>266.6</ele>
        <time>2013-03-13T12:04:00Z</time>
      </trkpt>
      <trkpt lat="50.39594" lon="5.293">
        <ele>264.9</ele>
        <time>2013-03-13T12:04:07Z</time>
      </trkpt>
      <trkpt lat="50.39575" lon="5.29316">
        <ele>272</ele>
        <time>2013-03-13T12:04:13Z</time>
      </trkpt>
      <trkpt lat="50.39551" lon="5.29333">
        <ele>272.1</ele>
        <time>2013-03-13T12:04:19Z</time>
      </trkpt>
      <trkpt lat="50.39533" lon="5.29341">
        <ele>271.9</ele>
        <time>2013-03-13T12:04:24Z</time>
      </trkpt>
      <trkpt lat="50.39515" lon="5.29349">
        <ele>272.4</ele>
        <time>2013-03-13T12:04:30Z</time>
      </trkpt>
      <trkpt lat="50.3949" lon="5.29366">
        <ele>273.4</ele>
        <time>2013-03-13T12:04:39Z</time>
      </trkpt>
      <trkpt lat="50.39476" lon="5.29381">
        <ele>274.5</ele>
        <time>2013-03-13T12:04:44Z</time>
      </trkpt>
      <trkpt lat="50.39464" lon="5.29404">
        <ele>274.1</ele>
        <time>2013-03-13T12:04:50Z</time>
      </trkpt>
      <trkpt lat="50.39457" lon="5.2943">
        <ele>275</ele>
        <time>2013-03-13T12:04:56Z</time>
      </trkpt>
      <trkpt lat="50.39455" lon="5.29445">
        <ele>276.3</ele>
        <time>2013-03-13T12:05:01Z</time>
      </trkpt>
      <trkpt lat="50.39456" lon="5.29455">
        <ele>275.7</ele>
        <time>2013-03-13T12:05:06Z</time>
      </trkpt>
      <trkpt lat="50.39456" lon="5.29455">
        <ele>236.6</ele>
        <time>2013-03-13T12:05:14Z</time>
      </trkpt>
      <trkpt lat="50.39456" lon="5.29455">
        <ele>236.6</ele>
        <time>2013-03-13T12:17:31Z</time>
      </trkpt>
      <trkpt lat="50.39462" lon="5.29421">
        <ele>277.8</ele>
        <time>2013-03-13T12:17:31Z</time>
      </trkpt>
      <trkpt lat="50.39478" lon="5.29381">
        <ele>279.7</ele>
        <time>2013-03-13T12:17:38Z</time>
      </trkpt>
      <trkpt lat="50.39492" lon="5.29367">
        <ele>278.4</ele>
        <time>2013-03-13T12:17:43Z</time>
      </trkpt>
      <trkpt lat="50.3951" lon="5.29354">
        <ele>277.7</ele>
        <time>2013-03-13T12:17:50Z</time>
      </trkpt>
      <trkpt lat="50.39522" lon="5.29348">
        <ele>277.2</ele>
        <time>2013-03-13T12:17:55Z</time>
      </trkpt>
      <trkpt lat="50.39522" lon="5.29348">
        <ele>235</ele>
        <time>2013-03-13T12:18:01Z</time>
      </trkpt>
      <trkpt lat="50.39522" lon="5.29348">
        <ele>235</ele>
        <time>2013-03-13T12:21:30Z</time>
      </trkpt>
      <trkpt lat="50.39509" lon="5.29355">
        <ele>276.6</ele>
        <time>2013-03-13T12:21:30Z</time>
      </trkpt>
      <trkpt lat="50.3949" lon="5.29374">
        <ele>277.9</ele>
        <time>2013-03-13T12:21:36Z</time>
      </trkpt>
      <trkpt lat="50.39475" lon="5.29399">
        <ele>276.8</ele>
        <time>2013-03-13T12:21:42Z</time>
      </trkpt>
      <trkpt lat="50.39461" lon="5.2944">
        <ele>278.8</ele>
        <time>2013-03-13T12:21:49Z</time>
      </trkpt>
      <trkpt lat="50.39459" lon="5.29462">
        <ele>280.1</ele>
        <time>2013-03-13T12:21:54Z</time>
      </trkpt>
      <trkpt lat="50.39456" lon="5.29506">
        <ele>280.5</ele>
        <time>2013-03-13T12:22:03Z</time>
      </trkpt>
      <trkpt lat="50.39456" lon="5.29536">
        <ele>279.4</ele>
        <time>2013-03-13T12:22:11Z</time>
      </trkpt>
      <trkpt lat="50.39454" lon="5.29553">
        <ele>279.9</ele>
        <time>2013-03-13T12:22:16Z</time>
      </trkpt>
      <trkpt lat="50.39452" lon="5.29573">
        <ele>278.4</ele>
        <time>2013-03-13T12:22:21Z</time>
      </trkpt>
      <trkpt lat="50.39446" lon="5.29602">
        <ele>279.1</ele>
        <time>2013-03-13T12:22:28Z</time>
      </trkpt>
      <trkpt lat="50.39439" lon="5.29628">
        <ele>277.5</ele>
        <time>2013-03-13T12:22:35Z</time>
      </trkpt>
      <trkpt lat="50.39434" lon="5.29642">
        <ele>279.6</ele>
        <time>2013-03-13T12:22:38Z</time>
      </trkpt>
      <trkpt lat="50.39428" lon="5.29656">
        <ele>280.6</ele>
        <time>2013-03-13T12:22:41Z</time>
      </trkpt>
      <trkpt lat="50.39423" lon="5.29667">
        <ele>279.9</ele>
        <time>2013-03-13T12:22:44Z</time>
      </trkpt>
      <trkpt lat="50.39412" lon="5.29708">
        <ele>284.4</ele>
        <time>2013-03-13T12:22:56Z</time>
      </trkpt>
      <trkpt lat="50.39395" lon="5.29744">
        <ele>283.8</ele>
        <time>2013-03-13T12:23:07Z</time>
      </trkpt>
      <trkpt lat="50.39385" lon="5.29761">
        <ele>283.6</ele>
        <time>2013-03-13T12:23:12Z</time>
      </trkpt>
      <trkpt lat="50.39376" lon="5.29778">
        <ele>285.3</ele>
        <time>2013-03-13T12:23:16Z</time>
      </trkpt>
      <trkpt lat="50.39375" lon="5.29781">
        <ele>285.5</ele>
        <time>2013-03-13T12:23:17Z</time>
      </trkpt>
      <trkpt lat="50.39375" lon="5.29781">
        <ele>246.6</ele>
        <time>2013-03-13T12:23:23Z</time>
      </trkpt>
      <trkpt lat="50.39375" lon="5.29781">
        <ele>246.6</ele>
        <time>2013-03-13T12:23:27Z</time>
      </trkpt>
      <trkpt lat="50.39366" lon="5.29795">
        <ele>285.9</ele>
        <time>2013-03-13T12:23:27Z</time>
      </trkpt>
      <trkpt lat="50.39357" lon="5.29808">
        <ele>285.6</ele>
        <time>2013-03-13T12:23:33Z</time>
      </trkpt>
      <trkpt lat="50.39334" lon="5.29839">
        <ele>286.7</ele>
        <time>2013-03-13T12:23:49Z</time>
      </trkpt>
      <trkpt lat="50.39326" lon="5.29861">
        <ele>286.1</ele>
        <time>2013-03-13T12:23:58Z</time>
      </trkpt>
      <trkpt lat="50.39322" lon="5.2988">
        <ele>285.9</ele>
        <time>2013-03-13T12:24:03Z</time>
      </trkpt>
      <trkpt lat="50.39303" lon="5.2993">
        <ele>289.9</ele>
        <time>2013-03-13T12:24:11Z</time>
      </trkpt>
      <trkpt lat="50.39297" lon="5.29952">
        <ele>293.2</ele>
        <time>2013-03-13T12:24:15Z</time>
      </trkpt>
      <trkpt lat="50.3929" lon="5.29988">
        <ele>296.4</ele>
        <time>2013-03-13T12:24:22Z</time>
      </trkpt>
      <trkpt lat="50.39285" lon="5.30014">
        <ele>296.2</ele>
        <time>2013-03-13T12:24:28Z</time>
      </trkpt>
      <trkpt lat="50.39278" lon="5.30055">
        <ele>299</ele>
        <time>2013-03-13T12:24:39Z</time>
      </trkpt>
      <trkpt lat="50.39273" lon="5.30087">
        <ele>297.6</ele>
        <time>2013-03-13T12:24:47Z</time>
      </trkpt>
      <trkpt lat="50.39271" lon="5.30103">
        <ele>296.8</ele>
        <time>2013-03-13T12:24:55Z</time>
      </trkpt>
      <trkpt lat="50.39269" lon="5.30121">
        <ele>297.4</ele>
        <time>2013-03-13T12:24:59Z</time>
      </trkpt>
      <trkpt lat="50.39268" lon="5.30146">
        <ele>299.8</ele>
        <time>2013-03-13T12:25:04Z</time>
      </trkpt>
      <trkpt lat="50.39266" lon="5.30179">
        <ele>300.9</ele>
        <time>2013-03-13T12:25:11Z</time>
      </trkpt>
      <trkpt lat="50.39261" lon="5.30227">
        <ele>300.8</ele>
        <time>2013-03-13T12:25:19Z</time>
      </trkpt>
      <trkpt lat="50.39256" lon="5.30266">
        <ele>298.7</ele>
        <time>2013-03-13T12:25:24Z</time>
      </trkpt>
      <trkpt lat="50.39252" lon="5.30296">
        <ele>299.8</ele>
        <time>2013-03-13T12:25:29Z</time>
      </trkpt>
      <trkpt lat="50.39249" lon="5.30326">
        <ele>299.5</ele>
        <time>2013-03-13T12:25:34Z</time>
      </trkpt>
      <trkpt lat="50.39247" lon="5.30353">
        <ele>301.7</ele>
        <time>2013-03-13T12:25:39Z</time>
      </trkpt>
      <trkpt lat="50.39241" lon="5.30373">
        <ele>302.4</ele>
        <time>2013-03-13T12:25:43Z</time>
      </trkpt>
      <trkpt lat="50.39238" lon="5.30415">
        <ele>303.6</ele>
        <time>2013-03-13T12:25:50Z</time>
      </trkpt>
      <trkpt lat="50.39234" lon="5.30448">
        <ele>302.4</ele>
        <time>2013-03-13T12:25:57Z</time>
      </trkpt>
      <trkpt lat="50.39227" lon="5.30487">
        <ele>300.4</ele>
        <time>2013-03-13T12:26:05Z</time>
      </trkpt>
      <trkpt lat="50.3922" lon="5.30533">
        <ele>299.4</ele>
        <time>2013-03-13T12:26:11Z</time>
      </trkpt>
      <trkpt lat="50.3922" lon="5.30572">
        <ele>300.7</ele>
        <time>2013-03-13T12:26:16Z</time>
      </trkpt>
      <trkpt lat="50.39221" lon="5.30611">
        <ele>302.5</ele>
        <time>2013-03-13T12:26:23Z</time>
      </trkpt>
      <trkpt lat="50.39217" lon="5.30661">
        <ele>300.1</ele>
        <time>2013-03-13T12:26:29Z</time>
      </trkpt>
      <trkpt lat="50.39218" lon="5.30689">
        <ele>302.7</ele>
        <time>2013-03-13T12:26:36Z</time>
      </trkpt>
      <trkpt lat="50.39213" lon="5.30738">
        <ele>304</ele>
        <time>2013-03-13T12:26:45Z</time>
      </trkpt>
      <trkpt lat="50.39211" lon="5.30769">
        <ele>304.7</ele>
        <time>2013-03-13T12:26:52Z</time>
      </trkpt>
      <trkpt lat="50.39208" lon="5.30799">
        <ele>306.9</ele>
        <time>2013-03-13T12:27:00Z</time>
      </trkpt>
      <trkpt lat="50.392" lon="5.30844">
        <ele>309.8</ele>
        <time>2013-03-13T12:27:11Z</time>
      </trkpt>
      <trkpt lat="50.39195" lon="5.30877">
        <ele>307.5</ele>
        <time>2013-03-13T12:27:18Z</time>
      </trkpt>
      <trkpt lat="50.39192" lon="5.30911">
        <ele>309.6</ele>
        <time>2013-03-13T12:27:25Z</time>
      </trkpt>
      <trkpt lat="50.39194" lon="5.30944">
        <ele>315.2</ele>
        <time>2013-03-13T12:27:32Z</time>
      </trkpt>
      <trkpt lat="50.39194" lon="5.30973">
        <ele>313.1</ele>
        <time>2013-03-13T12:27:40Z</time>
      </trkpt>
      <trkpt lat="50.39174" lon="5.30989">
        <ele>312</ele>
        <time>2013-03-13T12:27:51Z</time>
      </trkpt>
      <trkpt lat="50.39153" lon="5.30969">
        <ele>310.9</ele>
        <time>2013-03-13T12:27:59Z</time>
      </trkpt>
      <trkpt lat="50.39133" lon="5.30959">
        <ele>315</ele>
        <time>2013-03-13T12:28:07Z</time>
      </trkpt>
      <trkpt lat="50.39113" lon="5.30945">
        <ele>314.2</ele>
        <time>2013-03-13T12:28:15Z</time>
      </trkpt>
      <trkpt lat="50.39092" lon="5.30932">
        <ele>313.4</ele>
        <time>2013-03-13T12:28:23Z</time>
      </trkpt>
      <trkpt lat="50.39071" lon="5.30917">
        <ele>316</ele>
        <time>2013-03-13T12:28:32Z</time>
      </trkpt>
      <trkpt lat="50.39053" lon="5.30907">
        <ele>316.8</ele>
        <time>2013-03-13T12:28:40Z</time>
      </trkpt>
      <trkpt lat="50.39032" lon="5.30895">
        <ele>317</ele>
        <time>2013-03-13T12:28:49Z</time>
      </trkpt>
      <trkpt lat="50.39014" lon="5.30885">
        <ele>316.3</ele>
        <time>2013-03-13T12:28:57Z</time>
      </trkpt>
      <trkpt lat="50.38994" lon="5.30873">
        <ele>318.5</ele>
        <time>2013-03-13T12:29:06Z</time>
      </trkpt>
      <trkpt lat="50.38984" lon="5.30865">
        <ele>318.8</ele>
        <time>2013-03-13T12:29:11Z</time>
      </trkpt>
      <trkpt lat="50.38973" lon="5.30857">
        <ele>317.6</ele>
        <time>2013-03-13T12:29:16Z</time>
      </trkpt>
      <trkpt lat="50.38961" lon="5.30851">
        <ele>318.7</ele>
        <time>2013-03-13T12:29:21Z</time>
      </trkpt>
      <trkpt lat="50.38953" lon="5.30847">
        <ele>319.2</ele>
        <time>2013-03-13T12:29:24Z</time>
      </trkpt>
      <trkpt lat="50.38932" lon="5.30831">
        <ele>318.4</ele>
        <time>2013-03-13T12:29:35Z</time>
      </trkpt>
      <trkpt lat="50.38917" lon="5.3082">
        <ele>320.4</ele>
        <time>2013-03-13T12:29:43Z</time>
      </trkpt>
      <trkpt lat="50.389" lon="5.3081">
        <ele>320.9</ele>
        <time>2013-03-13T12:29:52Z</time>
      </trkpt>
      <trkpt lat="50.38877" lon="5.30797">
        <ele>324</ele>
        <time>2013-03-13T12:30:01Z</time>
      </trkpt>
      <trkpt lat="50.38869" lon="5.30791">
        <ele>324.7</ele>
        <time>2013-03-13T12:30:05Z</time>
      </trkpt>
      <trkpt lat="50.38864" lon="5.30787">
        <ele>325.9</ele>
        <time>2013-03-13T12:30:08Z</time>
      </trkpt>
      <trkpt lat="50.38841" lon="5.30779">
        <ele>327.3</ele>
        <time>2013-03-13T12:30:18Z</time>
      </trkpt>
      <trkpt lat="50.38823" lon="5.30769">
        <ele>328</ele>
        <time>2013-03-13T12:30:26Z</time>
      </trkpt>
      <trkpt lat="50.38804" lon="5.30756">
        <ele>331.2</ele>
        <time>2013-03-13T12:30:35Z</time>
      </trkpt>
      <trkpt lat="50.3879" lon="5.30748">
        <ele>333.4</ele>
        <time>2013-03-13T12:30:41Z</time>
      </trkpt>
      <trkpt lat="50.38779" lon="5.30738">
        <ele>333.1</ele>
        <time>2013-03-13T12:30:47Z</time>
      </trkpt>
      <trkpt lat="50.38761" lon="5.30721">
        <ele>334.3</ele>
        <time>2013-03-13T12:30:57Z</time>
      </trkpt>
      <trkpt lat="50.38747" lon="5.30695">
        <ele>333.7</ele>
        <time>2013-03-13T12:31:08Z</time>
      </trkpt>
      <trkpt lat="50.38739" lon="5.30687">
        <ele>332.1</ele>
        <time>2013-03-13T12:31:19Z</time>
      </trkpt>
      <trkpt lat="50.38731" lon="5.30673">
        <ele>332.2</ele>
        <time>2013-03-13T12:31:24Z</time>
      </trkpt>
      <trkpt lat="50.38712" lon="5.3064">
        <ele>334.1</ele>
        <time>2013-03-13T12:31:32Z</time>
      </trkpt>
      <trkpt lat="50.38701" lon="5.30623">
        <ele>336.8</ele>
        <time>2013-03-13T12:31:38Z</time>
      </trkpt>
      <trkpt lat="50.3868" lon="5.30609">
        <ele>338.7</ele>
        <time>2013-03-13T12:31:48Z</time>
      </trkpt>
      <trkpt lat="50.38659" lon="5.30627">
        <ele>339.9</ele>
        <time>2013-03-13T12:31:58Z</time>
      </trkpt>
      <trkpt lat="50.38646" lon="5.30644">
        <ele>340.3</ele>
        <time>2013-03-13T12:32:05Z</time>
      </trkpt>
      <trkpt lat="50.38632" lon="5.30666">
        <ele>339.8</ele>
        <time>2013-03-13T12:32:15Z</time>
      </trkpt>
      <trkpt lat="50.38602" lon="5.30688">
        <ele>343.9</ele>
        <time>2013-03-13T12:32:24Z</time>
      </trkpt>
      <trkpt lat="50.38583" lon="5.307">
        <ele>340.5</ele>
        <time>2013-03-13T12:32:30Z</time>
      </trkpt>
      <trkpt lat="50.38574" lon="5.30718">
        <ele>341.2</ele>
        <time>2013-03-13T12:32:36Z</time>
      </trkpt>
      <trkpt lat="50.38582" lon="5.30764">
        <ele>337.5</ele>
        <time>2013-03-13T12:32:45Z</time>
      </trkpt>
      <trkpt lat="50.38594" lon="5.30789">
        <ele>331.7</ele>
        <time>2013-03-13T12:32:50Z</time>
      </trkpt>
      <trkpt lat="50.38605" lon="5.30822">
        <ele>332.7</ele>
        <time>2013-03-13T12:32:56Z</time>
      </trkpt>
      <trkpt lat="50.386" lon="5.30846">
        <ele>336.6</ele>
        <time>2013-03-13T12:33:02Z</time>
      </trkpt>
      <trkpt lat="50.38587" lon="5.30857">
        <ele>335.8</ele>
        <time>2013-03-13T12:33:08Z</time>
      </trkpt>
      <trkpt lat="50.3857" lon="5.30883">
        <ele>332.4</ele>
        <time>2013-03-13T12:33:14Z</time>
      </trkpt>
      <trkpt lat="50.38536" lon="5.30929">
        <ele>333.7</ele>
        <time>2013-03-13T12:33:21Z</time>
      </trkpt>
      <trkpt lat="50.38514" lon="5.30963">
        <ele>333.4</ele>
        <time>2013-03-13T12:33:26Z</time>
      </trkpt>
      <trkpt lat="50.38486" lon="5.31015">
        <ele>333</ele>
        <time>2013-03-13T12:33:33Z</time>
      </trkpt>
      <trkpt lat="50.38472" lon="5.31044">
        <ele>330.6</ele>
        <time>2013-03-13T12:33:40Z</time>
      </trkpt>
      <trkpt lat="50.3845" lon="5.31091">
        <ele>328</ele>
        <time>2013-03-13T12:33:47Z</time>
      </trkpt>
      <trkpt lat="50.38427" lon="5.31126">
        <ele>326.3</ele>
        <time>2013-03-13T12:33:53Z</time>
      </trkpt>
      <trkpt lat="50.3841" lon="5.31149">
        <ele>323.9</ele>
        <time>2013-03-13T12:33:58Z</time>
      </trkpt>
      <trkpt lat="50.3839" lon="5.31182">
        <ele>322.6</ele>
        <time>2013-03-13T12:34:07Z</time>
      </trkpt>
      <trkpt lat="50.38392" lon="5.31227">
        <ele>322.9</ele>
        <time>2013-03-13T12:34:18Z</time>
      </trkpt>
      <trkpt lat="50.38399" lon="5.31249">
        <ele>322.3</ele>
        <time>2013-03-13T12:34:23Z</time>
      </trkpt>
      <trkpt lat="50.38414" lon="5.31277">
        <ele>321.7</ele>
        <time>2013-03-13T12:34:30Z</time>
      </trkpt>
      <trkpt lat="50.38429" lon="5.31305">
        <ele>320.5</ele>
        <time>2013-03-13T12:34:37Z</time>
      </trkpt>
      <trkpt lat="50.38439" lon="5.31324">
        <ele>321.7</ele>
        <time>2013-03-13T12:34:42Z</time>
      </trkpt>
      <trkpt lat="50.38446" lon="5.31337">
        <ele>321.9</ele>
        <time>2013-03-13T12:34:45Z</time>
      </trkpt>
      <trkpt lat="50.38452" lon="5.31349">
        <ele>321.3</ele>
        <time>2013-03-13T12:34:48Z</time>
      </trkpt>
      <trkpt lat="50.38462" lon="5.31367">
        <ele>321.8</ele>
        <time>2013-03-13T12:34:53Z</time>
      </trkpt>
      <trkpt lat="50.38475" lon="5.31386">
        <ele>323.1</ele>
        <time>2013-03-13T12:34:59Z</time>
      </trkpt>
      <trkpt lat="50.38487" lon="5.31414">
        <ele>321.8</ele>
        <time>2013-03-13T12:35:07Z</time>
      </trkpt>
      <trkpt lat="50.38498" lon="5.3144">
        <ele>322.4</ele>
        <time>2013-03-13T12:35:15Z</time>
      </trkpt>
      <trkpt lat="50.38512" lon="5.31473">
        <ele>326</ele>
        <time>2013-03-13T12:35:25Z</time>
      </trkpt>
      <trkpt lat="50.38526" lon="5.315">
        <ele>326.4</ele>
        <time>2013-03-13T12:35:34Z</time>
      </trkpt>
      <trkpt lat="50.38542" lon="5.31525">
        <ele>327.8</ele>
        <time>2013-03-13T12:35:44Z</time>
      </trkpt>
      <trkpt lat="50.38554" lon="5.31543">
        <ele>329.2</ele>
        <time>2013-03-13T12:35:51Z</time>
      </trkpt>
      <trkpt lat="50.38558" lon="5.31558">
        <ele>330.6</ele>
        <time>2013-03-13T12:35:56Z</time>
      </trkpt>
      <trkpt lat="50.3857" lon="5.31574">
        <ele>330.9</ele>
        <time>2013-03-13T12:36:05Z</time>
      </trkpt>
      <trkpt lat="50.38583" lon="5.31596">
        <ele>329.1</ele>
        <time>2013-03-13T12:36:15Z</time>
      </trkpt>
      <trkpt lat="50.38599" lon="5.31612">
        <ele>334</ele>
        <time>2013-03-13T12:36:25Z</time>
      </trkpt>
      <trkpt lat="50.38623" lon="5.31624">
        <ele>333.6</ele>
        <time>2013-03-13T12:36:37Z</time>
      </trkpt>
      <trkpt lat="50.38647" lon="5.31619">
        <ele>338.5</ele>
        <time>2013-03-13T12:36:48Z</time>
      </trkpt>
      <trkpt lat="50.38662" lon="5.3161">
        <ele>339.7</ele>
        <time>2013-03-13T12:36:56Z</time>
      </trkpt>
      <trkpt lat="50.38671" lon="5.31603">
        <ele>339.9</ele>
        <time>2013-03-13T12:37:01Z</time>
      </trkpt>
      <trkpt lat="50.38676" lon="5.31598">
        <ele>340</ele>
        <time>2013-03-13T12:37:04Z</time>
      </trkpt>
      <trkpt lat="50.38694" lon="5.31584">
        <ele>341.3</ele>
        <time>2013-03-13T12:37:13Z</time>
      </trkpt>
      <trkpt lat="50.38704" lon="5.31574">
        <ele>340.2</ele>
        <time>2013-03-13T12:37:20Z</time>
      </trkpt>
      <trkpt lat="50.38714" lon="5.31583">
        <ele>339.6</ele>
        <time>2013-03-13T12:37:29Z</time>
      </trkpt>
      <trkpt lat="50.3872" lon="5.31632">
        <ele>342.5</ele>
        <time>2013-03-13T12:37:41Z</time>
      </trkpt>
      <trkpt lat="50.3873" lon="5.31662">
        <ele>343</ele>
        <time>2013-03-13T12:37:49Z</time>
      </trkpt>
      <trkpt lat="50.38738" lon="5.31693">
        <ele>345</ele>
        <time>2013-03-13T12:37:57Z</time>
      </trkpt>
      <trkpt lat="50.38744" lon="5.31711">
        <ele>346.6</ele>
        <time>2013-03-13T12:38:02Z</time>
      </trkpt>
      <trkpt lat="50.38749" lon="5.31727">
        <ele>346.3</ele>
        <time>2013-03-13T12:38:06Z</time>
      </trkpt>
      <trkpt lat="50.38757" lon="5.31765">
        <ele>347</ele>
        <time>2013-03-13T12:38:14Z</time>
      </trkpt>
      <trkpt lat="50.38767" lon="5.31805">
        <ele>347.2</ele>
        <time>2013-03-13T12:38:21Z</time>
      </trkpt>
      <trkpt lat="50.38779" lon="5.3185">
        <ele>347.7</ele>
        <time>2013-03-13T12:38:26Z</time>
      </trkpt>
      <trkpt lat="50.38793" lon="5.31898">
        <ele>348</ele>
        <time>2013-03-13T12:38:32Z</time>
      </trkpt>
      <trkpt lat="50.38804" lon="5.3194">
        <ele>347.3</ele>
        <time>2013-03-13T12:38:38Z</time>
      </trkpt>
      <trkpt lat="50.38811" lon="5.31976">
        <ele>348.2</ele>
        <time>2013-03-13T12:38:44Z</time>
      </trkpt>
      <trkpt lat="50.38817" lon="5.32001">
        <ele>347.7</ele>
        <time>2013-03-13T12:38:49Z</time>
      </trkpt>
      <trkpt lat="50.38824" lon="5.32028">
        <ele>347.3</ele>
        <time>2013-03-13T12:38:56Z</time>
      </trkpt>
      <trkpt lat="50.3883" lon="5.32052">
        <ele>347.2</ele>
        <time>2013-03-13T12:39:02Z</time>
      </trkpt>
      <trkpt lat="50.38837" lon="5.32083">
        <ele>344.2</ele>
        <time>2013-03-13T12:39:09Z</time>
      </trkpt>
      <trkpt lat="50.3885" lon="5.32116">
        <ele>345.3</ele>
        <time>2013-03-13T12:39:17Z</time>
      </trkpt>
      <trkpt lat="50.38857" lon="5.32145">
        <ele>347.7</ele>
        <time>2013-03-13T12:39:24Z</time>
      </trkpt>
      <trkpt lat="50.38867" lon="5.32166">
        <ele>346.5</ele>
        <time>2013-03-13T12:39:29Z</time>
      </trkpt>
      <trkpt lat="50.38879" lon="5.32199">
        <ele>346</ele>
        <time>2013-03-13T12:39:35Z</time>
      </trkpt>
      <trkpt lat="50.38894" lon="5.32229">
        <ele>344.2</ele>
        <time>2013-03-13T12:39:41Z</time>
      </trkpt>
      <trkpt lat="50.38908" lon="5.3225">
        <ele>346</ele>
        <time>2013-03-13T12:39:46Z</time>
      </trkpt>
      <trkpt lat="50.38924" lon="5.32276">
        <ele>346.8</ele>
        <time>2013-03-13T12:39:53Z</time>
      </trkpt>
      <trkpt lat="50.38935" lon="5.32286">
        <ele>346.9</ele>
        <time>2013-03-13T12:39:59Z</time>
      </trkpt>
      <trkpt lat="50.3896" lon="5.32288">
        <ele>348.1</ele>
        <time>2013-03-13T12:40:09Z</time>
      </trkpt>
      <trkpt lat="50.38987" lon="5.32297">
        <ele>347.9</ele>
        <time>2013-03-13T12:40:19Z</time>
      </trkpt>
      <trkpt lat="50.3901" lon="5.32305">
        <ele>347.5</ele>
        <time>2013-03-13T12:40:27Z</time>
      </trkpt>
      <trkpt lat="50.39031" lon="5.32317">
        <ele>349.5</ele>
        <time>2013-03-13T12:40:35Z</time>
      </trkpt>
      <trkpt lat="50.39042" lon="5.32323">
        <ele>351.1</ele>
        <time>2013-03-13T12:40:41Z</time>
      </trkpt>
      <trkpt lat="50.3907" lon="5.32331">
        <ele>352.4</ele>
        <time>2013-03-13T12:40:53Z</time>
      </trkpt>
      <trkpt lat="50.39098" lon="5.32349">
        <ele>355.6</ele>
        <time>2013-03-13T12:41:03Z</time>
      </trkpt>
      <trkpt lat="50.39122" lon="5.32357">
        <ele>355.4</ele>
        <time>2013-03-13T12:41:10Z</time>
      </trkpt>
      <trkpt lat="50.39138" lon="5.32367">
        <ele>354.6</ele>
        <time>2013-03-13T12:41:16Z</time>
      </trkpt>
      <trkpt lat="50.39157" lon="5.32387">
        <ele>357.6</ele>
        <time>2013-03-13T12:41:23Z</time>
      </trkpt>
      <trkpt lat="50.39163" lon="5.324">
        <ele>359.1</ele>
        <time>2013-03-13T12:41:27Z</time>
      </trkpt>
      <trkpt lat="50.39178" lon="5.32422">
        <ele>359.6</ele>
        <time>2013-03-13T12:41:34Z</time>
      </trkpt>
      <trkpt lat="50.39195" lon="5.32449">
        <ele>361.7</ele>
        <time>2013-03-13T12:41:41Z</time>
      </trkpt>
      <trkpt lat="50.39212" lon="5.32471">
        <ele>360.9</ele>
        <time>2013-03-13T12:41:47Z</time>
      </trkpt>
      <trkpt lat="50.39232" lon="5.32499">
        <ele>360.3</ele>
        <time>2013-03-13T12:41:54Z</time>
      </trkpt>
      <trkpt lat="50.39243" lon="5.32519">
        <ele>361.5</ele>
        <time>2013-03-13T12:41:59Z</time>
      </trkpt>
      <trkpt lat="50.39261" lon="5.32547">
        <ele>362.7</ele>
        <time>2013-03-13T12:42:06Z</time>
      </trkpt>
      <trkpt lat="50.39278" lon="5.32579">
        <ele>360.9</ele>
        <time>2013-03-13T12:42:13Z</time>
      </trkpt>
      <trkpt lat="50.39291" lon="5.32611">
        <ele>361.4</ele>
        <time>2013-03-13T12:42:18Z</time>
      </trkpt>
      <trkpt lat="50.39303" lon="5.32629">
        <ele>362.3</ele>
        <time>2013-03-13T12:42:24Z</time>
      </trkpt>
      <trkpt lat="50.39317" lon="5.32659">
        <ele>360.4</ele>
        <time>2013-03-13T12:42:31Z</time>
      </trkpt>
      <trkpt lat="50.39333" lon="5.32685">
        <ele>362.3</ele>
        <time>2013-03-13T12:42:37Z</time>
      </trkpt>
      <trkpt lat="50.39346" lon="5.32714">
        <ele>362.1</ele>
        <time>2013-03-13T12:42:43Z</time>
      </trkpt>
      <trkpt lat="50.39362" lon="5.32741">
        <ele>362.8</ele>
        <time>2013-03-13T12:42:49Z</time>
      </trkpt>
      <trkpt lat="50.39377" lon="5.32767">
        <ele>363.7</ele>
        <time>2013-03-13T12:42:55Z</time>
      </trkpt>
      <trkpt lat="50.39391" lon="5.32798">
        <ele>364.4</ele>
        <time>2013-03-13T12:43:01Z</time>
      </trkpt>
      <trkpt lat="50.39403" lon="5.32826">
        <ele>365.1</ele>
        <time>2013-03-13T12:43:07Z</time>
      </trkpt>
      <trkpt lat="50.39416" lon="5.32852">
        <ele>363.1</ele>
        <time>2013-03-13T12:43:13Z</time>
      </trkpt>
      <trkpt lat="50.39427" lon="5.32872">
        <ele>361.3</ele>
        <time>2013-03-13T12:43:18Z</time>
      </trkpt>
      <trkpt lat="50.39433" lon="5.32885">
        <ele>360</ele>
        <time>2013-03-13T12:43:21Z</time>
      </trkpt>
      <trkpt lat="50.39447" lon="5.32908">
        <ele>360</ele>
        <time>2013-03-13T12:43:27Z</time>
      </trkpt>
      <trkpt lat="50.3946" lon="5.32934">
        <ele>361</ele>
        <time>2013-03-13T12:43:33Z</time>
      </trkpt>
      <trkpt lat="50.39478" lon="5.32967">
        <ele>362.7</ele>
        <time>2013-03-13T12:43:40Z</time>
      </trkpt>
      <trkpt lat="50.39491" lon="5.32997">
        <ele>363.8</ele>
        <time>2013-03-13T12:43:46Z</time>
      </trkpt>
      <trkpt lat="50.39514" lon="5.33033">
        <ele>363.3</ele>
        <time>2013-03-13T12:43:52Z</time>
      </trkpt>
      <trkpt lat="50.39527" lon="5.33058">
        <ele>362.2</ele>
        <time>2013-03-13T12:43:56Z</time>
      </trkpt>
      <trkpt lat="50.39546" lon="5.33092">
        <ele>362.5</ele>
        <time>2013-03-13T12:44:02Z</time>
      </trkpt>
      <trkpt lat="50.39563" lon="5.33127">
        <ele>363.7</ele>
        <time>2013-03-13T12:44:08Z</time>
      </trkpt>
      <trkpt lat="50.39582" lon="5.33163">
        <ele>366</ele>
        <time>2013-03-13T12:44:14Z</time>
      </trkpt>
      <trkpt lat="50.396" lon="5.33204">
        <ele>366.4</ele>
        <time>2013-03-13T12:44:21Z</time>
      </trkpt>
      <trkpt lat="50.39616" lon="5.33237">
        <ele>366.5</ele>
        <time>2013-03-13T12:44:26Z</time>
      </trkpt>
      <trkpt lat="50.39635" lon="5.3327">
        <ele>366.1</ele>
        <time>2013-03-13T12:44:32Z</time>
      </trkpt>
      <trkpt lat="50.3965" lon="5.33301">
        <ele>366.5</ele>
        <time>2013-03-13T12:44:37Z</time>
      </trkpt>
      <trkpt lat="50.39665" lon="5.33337">
        <ele>365.3</ele>
        <time>2013-03-13T12:44:43Z</time>
      </trkpt>
      <trkpt lat="50.39673" lon="5.33361">
        <ele>364.5</ele>
        <time>2013-03-13T12:44:47Z</time>
      </trkpt>
      <trkpt lat="50.39679" lon="5.334">
        <ele>363.4</ele>
        <time>2013-03-13T12:44:52Z</time>
      </trkpt>
      <trkpt lat="50.39695" lon="5.33439">
        <ele>364.8</ele>
        <time>2013-03-13T12:44:58Z</time>
      </trkpt>
      <trkpt lat="50.39706" lon="5.33459">
        <ele>364.9</ele>
        <time>2013-03-13T12:45:01Z</time>
      </trkpt>
      <trkpt lat="50.39715" lon="5.3348">
        <ele>365</ele>
        <time>2013-03-13T12:45:04Z</time>
      </trkpt>
      <trkpt lat="50.39733" lon="5.33511">
        <ele>365.8</ele>
        <time>2013-03-13T12:45:09Z</time>
      </trkpt>
      <trkpt lat="50.3975" lon="5.33542">
        <ele>366.2</ele>
        <time>2013-03-13T12:45:14Z</time>
      </trkpt>
      <trkpt lat="50.39769" lon="5.33574">
        <ele>364.9</ele>
        <time>2013-03-13T12:45:19Z</time>
      </trkpt>
      <trkpt lat="50.39793" lon="5.33614">
        <ele>367.6</ele>
        <time>2013-03-13T12:45:25Z</time>
      </trkpt>
      <trkpt lat="50.39813" lon="5.33654">
        <ele>365.3</ele>
        <time>2013-03-13T12:45:31Z</time>
      </trkpt>
      <trkpt lat="50.39822" lon="5.33675">
        <ele>364.8</ele>
        <time>2013-03-13T12:45:34Z</time>
      </trkpt>
      <trkpt lat="50.39839" lon="5.33712">
        <ele>365.2</ele>
        <time>2013-03-13T12:45:39Z</time>
      </trkpt>
      <trkpt lat="50.39856" lon="5.33746">
        <ele>364.8</ele>
        <time>2013-03-13T12:45:44Z</time>
      </trkpt>
      <trkpt lat="50.39875" lon="5.33785">
        <ele>364</ele>
        <time>2013-03-13T12:45:50Z</time>
      </trkpt>
      <trkpt lat="50.39894" lon="5.33831">
        <ele>362.5</ele>
        <time>2013-03-13T12:45:56Z</time>
      </trkpt>
      <trkpt lat="50.39908" lon="5.33884">
        <ele>362.3</ele>
        <time>2013-03-13T12:46:02Z</time>
      </trkpt>
      <trkpt lat="50.3992" lon="5.33919">
        <ele>364</ele>
        <time>2013-03-13T12:46:06Z</time>
      </trkpt>
      <trkpt lat="50.39933" lon="5.33952">
        <ele>364.8</ele>
        <time>2013-03-13T12:46:11Z</time>
      </trkpt>
      <trkpt lat="50.39939" lon="5.33972">
        <ele>364</ele>
        <time>2013-03-13T12:46:14Z</time>
      </trkpt>
      <trkpt lat="50.39944" lon="5.33995">
        <ele>362.9</ele>
        <time>2013-03-13T12:46:17Z</time>
      </trkpt>
      <trkpt lat="50.39955" lon="5.34033">
        <ele>361.6</ele>
        <time>2013-03-13T12:46:24Z</time>
      </trkpt>
      <trkpt lat="50.39962" lon="5.34065">
        <ele>359.5</ele>
        <time>2013-03-13T12:46:31Z</time>
      </trkpt>
      <trkpt lat="50.39961" lon="5.34074">
        <ele>359.5</ele>
        <time>2013-03-13T12:46:34Z</time>
      </trkpt>
      <trkpt lat="50.39961" lon="5.34074">
        <ele>315.1</ele>
        <time>2013-03-13T12:46:39Z</time>
      </trkpt>
      <trkpt lat="50.39961" lon="5.34074">
        <ele>315.1</ele>
        <time>2013-03-13T12:47:25Z</time>
      </trkpt>
      <trkpt lat="50.39978" lon="5.34096">
        <ele>363.4</ele>
        <time>2013-03-13T12:47:25Z</time>
      </trkpt>
      <trkpt lat="50.39989" lon="5.34117">
        <ele>363.5</ele>
        <time>2013-03-13T12:47:30Z</time>
      </trkpt>
      <trkpt lat="50.39997" lon="5.34145">
        <ele>361.5</ele>
        <time>2013-03-13T12:47:35Z</time>
      </trkpt>
      <trkpt lat="50.40006" lon="5.34177">
        <ele>361.7</ele>
        <time>2013-03-13T12:47:41Z</time>
      </trkpt>
      <trkpt lat="50.40018" lon="5.34207">
        <ele>362.8</ele>
        <time>2013-03-13T12:47:47Z</time>
      </trkpt>
      <trkpt lat="50.40032" lon="5.34241">
        <ele>363.7</ele>
        <time>2013-03-13T12:47:54Z</time>
      </trkpt>
      <trkpt lat="50.40042" lon="5.34272">
        <ele>363.2</ele>
        <time>2013-03-13T12:48:01Z</time>
      </trkpt>
      <trkpt lat="50.40057" lon="5.34301">
        <ele>368.3</ele>
        <time>2013-03-13T12:48:09Z</time>
      </trkpt>
      <trkpt lat="50.4007" lon="5.34332">
        <ele>368.5</ele>
        <time>2013-03-13T12:48:16Z</time>
      </trkpt>
      <trkpt lat="50.40082" lon="5.34362">
        <ele>369.2</ele>
        <time>2013-03-13T12:48:23Z</time>
      </trkpt>
      <trkpt lat="50.40097" lon="5.3439">
        <ele>368.5</ele>
        <time>2013-03-13T12:48:30Z</time>
      </trkpt>
      <trkpt lat="50.40109" lon="5.34421">
        <ele>367.5</ele>
        <time>2013-03-13T12:48:35Z</time>
      </trkpt>
      <trkpt lat="50.40123" lon="5.34454">
        <ele>367.5</ele>
        <time>2013-03-13T12:48:41Z</time>
      </trkpt>
      <trkpt lat="50.40138" lon="5.34487">
        <ele>366.3</ele>
        <time>2013-03-13T12:48:47Z</time>
      </trkpt>
      <trkpt lat="50.40154" lon="5.34519">
        <ele>367.3</ele>
        <time>2013-03-13T12:48:53Z</time>
      </trkpt>
      <trkpt lat="50.40168" lon="5.34547">
        <ele>366.2</ele>
        <time>2013-03-13T12:48:58Z</time>
      </trkpt>
      <trkpt lat="50.40188" lon="5.34586">
        <ele>364.9</ele>
        <time>2013-03-13T12:49:05Z</time>
      </trkpt>
      <trkpt lat="50.40203" lon="5.3462">
        <ele>366.4</ele>
        <time>2013-03-13T12:49:11Z</time>
      </trkpt>
      <trkpt lat="50.40218" lon="5.34662">
        <ele>367.8</ele>
        <time>2013-03-13T12:49:18Z</time>
      </trkpt>
      <trkpt lat="50.40236" lon="5.34693">
        <ele>366.9</ele>
        <time>2013-03-13T12:49:24Z</time>
      </trkpt>
      <trkpt lat="50.40256" lon="5.34733">
        <ele>366.5</ele>
        <time>2013-03-13T12:49:31Z</time>
      </trkpt>
      <trkpt lat="50.40269" lon="5.34761">
        <ele>366.3</ele>
        <time>2013-03-13T12:49:37Z</time>
      </trkpt>
      <trkpt lat="50.40282" lon="5.34789">
        <ele>365.9</ele>
        <time>2013-03-13T12:49:42Z</time>
      </trkpt>
      <trkpt lat="50.40299" lon="5.3483">
        <ele>366.9</ele>
        <time>2013-03-13T12:49:48Z</time>
      </trkpt>
      <trkpt lat="50.40313" lon="5.34853">
        <ele>367</ele>
        <time>2013-03-13T12:49:52Z</time>
      </trkpt>
      <trkpt lat="50.40325" lon="5.34876">
        <ele>367.7</ele>
        <time>2013-03-13T12:49:56Z</time>
      </trkpt>
      <trkpt lat="50.40346" lon="5.34918">
        <ele>368.6</ele>
        <time>2013-03-13T12:50:02Z</time>
      </trkpt>
      <trkpt lat="50.40365" lon="5.34949">
        <ele>367.9</ele>
        <time>2013-03-13T12:50:07Z</time>
      </trkpt>
      <trkpt lat="50.40388" lon="5.34983">
        <ele>367.1</ele>
        <time>2013-03-13T12:50:13Z</time>
      </trkpt>
      <trkpt lat="50.40398" lon="5.35002">
        <ele>366.7</ele>
        <time>2013-03-13T12:50:17Z</time>
      </trkpt>
      <trkpt lat="50.40422" lon="5.3504">
        <ele>366.6</ele>
        <time>2013-03-13T12:50:22Z</time>
      </trkpt>
      <trkpt lat="50.40445" lon="5.35074">
        <ele>366.7</ele>
        <time>2013-03-13T12:50:28Z</time>
      </trkpt>
      <trkpt lat="50.40466" lon="5.35104">
        <ele>367.3</ele>
        <time>2013-03-13T12:50:34Z</time>
      </trkpt>
      <trkpt lat="50.40482" lon="5.35129">
        <ele>367</ele>
        <time>2013-03-13T12:50:39Z</time>
      </trkpt>
      <trkpt lat="50.40493" lon="5.35147">
        <ele>366.6</ele>
        <time>2013-03-13T12:50:42Z</time>
      </trkpt>
      <trkpt lat="50.40508" lon="5.35177">
        <ele>367.8</ele>
        <time>2013-03-13T12:50:47Z</time>
      </trkpt>
      <trkpt lat="50.40525" lon="5.35203">
        <ele>368.2</ele>
        <time>2013-03-13T12:50:52Z</time>
      </trkpt>
      <trkpt lat="50.40548" lon="5.35235">
        <ele>366.8</ele>
        <time>2013-03-13T12:50:58Z</time>
      </trkpt>
      <trkpt lat="50.40569" lon="5.35272">
        <ele>367.4</ele>
        <time>2013-03-13T12:51:04Z</time>
      </trkpt>
      <trkpt lat="50.40593" lon="5.35313">
        <ele>367.5</ele>
        <time>2013-03-13T12:51:10Z</time>
      </trkpt>
      <trkpt lat="50.40621" lon="5.35348">
        <ele>367</ele>
        <time>2013-03-13T12:51:16Z</time>
      </trkpt>
      <trkpt lat="50.40645" lon="5.35384">
        <ele>364.5</ele>
        <time>2013-03-13T12:51:22Z</time>
      </trkpt>
      <trkpt lat="50.40671" lon="5.35413">
        <ele>365</ele>
        <time>2013-03-13T12:51:27Z</time>
      </trkpt>
      <trkpt lat="50.4069" lon="5.35451">
        <ele>364.5</ele>
        <time>2013-03-13T12:51:32Z</time>
      </trkpt>
      <trkpt lat="50.40705" lon="5.35485">
        <ele>363.3</ele>
        <time>2013-03-13T12:51:38Z</time>
      </trkpt>
      <trkpt lat="50.40726" lon="5.35515">
        <ele>362.6</ele>
        <time>2013-03-13T12:51:43Z</time>
      </trkpt>
      <trkpt lat="50.40746" lon="5.35558">
        <ele>362</ele>
        <time>2013-03-13T12:51:49Z</time>
      </trkpt>
      <trkpt lat="50.40763" lon="5.35592">
        <ele>361.3</ele>
        <time>2013-03-13T12:51:54Z</time>
      </trkpt>
      <trkpt lat="50.40782" lon="5.35636">
        <ele>362</ele>
        <time>2013-03-13T12:51:59Z</time>
      </trkpt>
      <trkpt lat="50.40805" lon="5.35674">
        <ele>363.3</ele>
        <time>2013-03-13T12:52:04Z</time>
      </trkpt>
      <trkpt lat="50.40824" lon="5.35714">
        <ele>363.1</ele>
        <time>2013-03-13T12:52:10Z</time>
      </trkpt>
      <trkpt lat="50.40843" lon="5.35745">
        <ele>363.1</ele>
        <time>2013-03-13T12:52:15Z</time>
      </trkpt>
      <trkpt lat="50.40857" lon="5.35772">
        <ele>362.6</ele>
        <time>2013-03-13T12:52:20Z</time>
      </trkpt>
      <trkpt lat="50.40872" lon="5.35804">
        <ele>361.6</ele>
        <time>2013-03-13T12:52:27Z</time>
      </trkpt>
      <trkpt lat="50.40881" lon="5.35829">
        <ele>361.8</ele>
        <time>2013-03-13T12:52:32Z</time>
      </trkpt>
      <trkpt lat="50.409" lon="5.35866">
        <ele>361.2</ele>
        <time>2013-03-13T12:52:38Z</time>
      </trkpt>
      <trkpt lat="50.40922" lon="5.35907">
        <ele>359.6</ele>
        <time>2013-03-13T12:52:44Z</time>
      </trkpt>
      <trkpt lat="50.4094" lon="5.3594">
        <ele>356.8</ele>
        <time>2013-03-13T12:52:49Z</time>
      </trkpt>
      <trkpt lat="50.40959" lon="5.35968">
        <ele>353.8</ele>
        <time>2013-03-13T12:52:55Z</time>
      </trkpt>
      <trkpt lat="50.40969" lon="5.35993">
        <ele>355.2</ele>
        <time>2013-03-13T12:53:01Z</time>
      </trkpt>
      <trkpt lat="50.40973" lon="5.36015">
        <ele>355</ele>
        <time>2013-03-13T12:53:06Z</time>
      </trkpt>
      <trkpt lat="50.40989" lon="5.36045">
        <ele>359.3</ele>
        <time>2013-03-13T12:53:13Z</time>
      </trkpt>
      <trkpt lat="50.41005" lon="5.36068">
        <ele>360.6</ele>
        <time>2013-03-13T12:53:19Z</time>
      </trkpt>
      <trkpt lat="50.41026" lon="5.361">
        <ele>359.9</ele>
        <time>2013-03-13T12:53:26Z</time>
      </trkpt>
      <trkpt lat="50.41042" lon="5.36134">
        <ele>358.2</ele>
        <time>2013-03-13T12:53:32Z</time>
      </trkpt>
      <trkpt lat="50.41059" lon="5.36163">
        <ele>357.4</ele>
        <time>2013-03-13T12:53:37Z</time>
      </trkpt>
      <trkpt lat="50.41076" lon="5.362">
        <ele>358.5</ele>
        <time>2013-03-13T12:53:42Z</time>
      </trkpt>
      <trkpt lat="50.41095" lon="5.36237">
        <ele>357.7</ele>
        <time>2013-03-13T12:53:48Z</time>
      </trkpt>
      <trkpt lat="50.41109" lon="5.36269">
        <ele>357.9</ele>
        <time>2013-03-13T12:53:53Z</time>
      </trkpt>
      <trkpt lat="50.41118" lon="5.36292">
        <ele>358.2</ele>
        <time>2013-03-13T12:53:57Z</time>
      </trkpt>
      <trkpt lat="50.41125" lon="5.36309">
        <ele>357.5</ele>
        <time>2013-03-13T12:54:00Z</time>
      </trkpt>
      <trkpt lat="50.41139" lon="5.36341">
        <ele>355.9</ele>
        <time>2013-03-13T12:54:06Z</time>
      </trkpt>
      <trkpt lat="50.41137" lon="5.3638">
        <ele>353.6</ele>
        <time>2013-03-13T12:54:12Z</time>
      </trkpt>
      <trkpt lat="50.411" lon="5.36389">
        <ele>352.7</ele>
        <time>2013-03-13T12:54:18Z</time>
      </trkpt>
      <trkpt lat="50.41057" lon="5.36402">
        <ele>346</ele>
        <time>2013-03-13T12:54:23Z</time>
      </trkpt>
      <trkpt lat="50.40976" lon="5.3643">
        <ele>340.6</ele>
        <time>2013-03-13T12:54:32Z</time>
      </trkpt>
      <trkpt lat="50.40906" lon="5.36452">
        <ele>337.5</ele>
        <time>2013-03-13T12:54:38Z</time>
      </trkpt>
      <trkpt lat="50.40833" lon="5.36478">
        <ele>334.4</ele>
        <time>2013-03-13T12:54:45Z</time>
      </trkpt>
      <trkpt lat="50.40786" lon="5.36498">
        <ele>334.9</ele>
        <time>2013-03-13T12:54:50Z</time>
      </trkpt>
      <trkpt lat="50.40762" lon="5.36506">
        <ele>335.4</ele>
        <time>2013-03-13T12:54:53Z</time>
      </trkpt>
      <trkpt lat="50.40726" lon="5.36518">
        <ele>335</ele>
        <time>2013-03-13T12:54:58Z</time>
      </trkpt>
      <trkpt lat="50.40701" lon="5.36531">
        <ele>335.5</ele>
        <time>2013-03-13T12:55:02Z</time>
      </trkpt>
      <trkpt lat="50.40673" lon="5.36545">
        <ele>334.7</ele>
        <time>2013-03-13T12:55:08Z</time>
      </trkpt>
      <trkpt lat="50.40648" lon="5.3656">
        <ele>334.6</ele>
        <time>2013-03-13T12:55:13Z</time>
      </trkpt>
      <trkpt lat="50.40628" lon="5.36573">
        <ele>335.5</ele>
        <time>2013-03-13T12:55:19Z</time>
      </trkpt>
      <trkpt lat="50.40603" lon="5.36586">
        <ele>337.1</ele>
        <time>2013-03-13T12:55:26Z</time>
      </trkpt>
      <trkpt lat="50.40578" lon="5.36594">
        <ele>337.8</ele>
        <time>2013-03-13T12:55:33Z</time>
      </trkpt>
      <trkpt lat="50.40559" lon="5.36599">
        <ele>338.5</ele>
        <time>2013-03-13T12:55:41Z</time>
      </trkpt>
      <trkpt lat="50.40528" lon="5.366">
        <ele>337.3</ele>
        <time>2013-03-13T12:55:47Z</time>
      </trkpt>
      <trkpt lat="50.40502" lon="5.36604">
        <ele>338</ele>
        <time>2013-03-13T12:55:53Z</time>
      </trkpt>
      <trkpt lat="50.40455" lon="5.36611">
        <ele>339.2</ele>
        <time>2013-03-13T12:55:59Z</time>
      </trkpt>
      <trkpt lat="50.4041" lon="5.36623">
        <ele>332</ele>
        <time>2013-03-13T12:56:05Z</time>
      </trkpt>
      <trkpt lat="50.40357" lon="5.36614">
        <ele>340.5</ele>
        <time>2013-03-13T12:56:10Z</time>
      </trkpt>
      <trkpt lat="50.40291" lon="5.36616">
        <ele>336.8</ele>
        <time>2013-03-13T12:56:16Z</time>
      </trkpt>
      <trkpt lat="50.4024" lon="5.3662">
        <ele>334.9</ele>
        <time>2013-03-13T12:56:22Z</time>
      </trkpt>
      <trkpt lat="50.40162" lon="5.36627">
        <ele>327.9</ele>
        <time>2013-03-13T12:56:28Z</time>
      </trkpt>
      <trkpt lat="50.40096" lon="5.36634">
        <ele>323.5</ele>
        <time>2013-03-13T12:56:34Z</time>
      </trkpt>
      <trkpt lat="50.40061" lon="5.36632">
        <ele>321.3</ele>
        <time>2013-03-13T12:56:37Z</time>
      </trkpt>
      <trkpt lat="50.4001" lon="5.36633">
        <ele>320.4</ele>
        <time>2013-03-13T12:56:42Z</time>
      </trkpt>
      <trkpt lat="50.39953" lon="5.36637">
        <ele>318.7</ele>
        <time>2013-03-13T12:56:49Z</time>
      </trkpt>
      <trkpt lat="50.39915" lon="5.36637">
        <ele>317.9</ele>
        <time>2013-03-13T12:56:55Z</time>
      </trkpt>
      <trkpt lat="50.39868" lon="5.36645">
        <ele>317.2</ele>
        <time>2013-03-13T12:57:01Z</time>
      </trkpt>
      <trkpt lat="50.39833" lon="5.36656">
        <ele>316.5</ele>
        <time>2013-03-13T12:57:07Z</time>
      </trkpt>
      <trkpt lat="50.39799" lon="5.36675">
        <ele>317.7</ele>
        <time>2013-03-13T12:57:13Z</time>
      </trkpt>
      <trkpt lat="50.39789" lon="5.36697">
        <ele>317.1</ele>
        <time>2013-03-13T12:57:16Z</time>
      </trkpt>
      <trkpt lat="50.39768" lon="5.36714">
        <ele>315.8</ele>
        <time>2013-03-13T12:57:21Z</time>
      </trkpt>
      <trkpt lat="50.39741" lon="5.36722">
        <ele>315.5</ele>
        <time>2013-03-13T12:57:27Z</time>
      </trkpt>
      <trkpt lat="50.39722" lon="5.36719">
        <ele>314.5</ele>
        <time>2013-03-13T12:57:32Z</time>
      </trkpt>
      <trkpt lat="50.39695" lon="5.36714">
        <ele>313.7</ele>
        <time>2013-03-13T12:57:38Z</time>
      </trkpt>
      <trkpt lat="50.39681" lon="5.3671">
        <ele>314.2</ele>
        <time>2013-03-13T12:57:41Z</time>
      </trkpt>
      <trkpt lat="50.39645" lon="5.36707">
        <ele>313.1</ele>
        <time>2013-03-13T12:57:46Z</time>
      </trkpt>
      <trkpt lat="50.3963" lon="5.36707">
        <ele>313.5</ele>
        <time>2013-03-13T12:57:49Z</time>
      </trkpt>
      <trkpt lat="50.39608" lon="5.36703">
        <ele>314</ele>
        <time>2013-03-13T12:57:53Z</time>
      </trkpt>
      <trkpt lat="50.39573" lon="5.36708">
        <ele>314.1</ele>
        <time>2013-03-13T12:57:59Z</time>
      </trkpt>
      <trkpt lat="50.39548" lon="5.36708">
        <ele>312.1</ele>
        <time>2013-03-13T12:58:04Z</time>
      </trkpt>
      <trkpt lat="50.39529" lon="5.36714">
        <ele>309.5</ele>
        <time>2013-03-13T12:58:09Z</time>
      </trkpt>
      <trkpt lat="50.39528" lon="5.36739">
        <ele>307.8</ele>
        <time>2013-03-13T12:58:17Z</time>
      </trkpt>
      <trkpt lat="50.39542" lon="5.36767">
        <ele>308.5</ele>
        <time>2013-03-13T12:58:23Z</time>
      </trkpt>
      <trkpt lat="50.39557" lon="5.36801">
        <ele>308.2</ele>
        <time>2013-03-13T12:58:29Z</time>
      </trkpt>
      <trkpt lat="50.39569" lon="5.36846">
        <ele>305.8</ele>
        <time>2013-03-13T12:58:35Z</time>
      </trkpt>
      <trkpt lat="50.39578" lon="5.36889">
        <ele>305.6</ele>
        <time>2013-03-13T12:58:41Z</time>
      </trkpt>
      <trkpt lat="50.39589" lon="5.36928">
        <ele>306.2</ele>
        <time>2013-03-13T12:58:47Z</time>
      </trkpt>
      <trkpt lat="50.39602" lon="5.36957">
        <ele>305.4</ele>
        <time>2013-03-13T12:58:52Z</time>
      </trkpt>
      <trkpt lat="50.39614" lon="5.36991">
        <ele>305.6</ele>
        <time>2013-03-13T12:58:58Z</time>
      </trkpt>
      <trkpt lat="50.39621" lon="5.37015">
        <ele>304.5</ele>
        <time>2013-03-13T12:59:04Z</time>
      </trkpt>
      <trkpt lat="50.39638" lon="5.37053">
        <ele>299.2</ele>
        <time>2013-03-13T12:59:12Z</time>
      </trkpt>
      <trkpt lat="50.3965" lon="5.37086">
        <ele>298.6</ele>
        <time>2013-03-13T12:59:18Z</time>
      </trkpt>
      <trkpt lat="50.39653" lon="5.37115">
        <ele>298.9</ele>
        <time>2013-03-13T12:59:23Z</time>
      </trkpt>
      <trkpt lat="50.39656" lon="5.37136">
        <ele>297.7</ele>
        <time>2013-03-13T12:59:27Z</time>
      </trkpt>
      <trkpt lat="50.39662" lon="5.37164">
        <ele>296.5</ele>
        <time>2013-03-13T12:59:33Z</time>
      </trkpt>
      <trkpt lat="50.39664" lon="5.37181">
        <ele>295.8</ele>
        <time>2013-03-13T12:59:40Z</time>
      </trkpt>
      <trkpt lat="50.39666" lon="5.37203">
        <ele>298.9</ele>
        <time>2013-03-13T12:59:52Z</time>
      </trkpt>
      <trkpt lat="50.39666" lon="5.37203">
        <ele>263</ele>
        <time>2013-03-13T13:00:00Z</time>
      </trkpt>
      <trkpt lat="50.39666" lon="5.37203">
        <ele>263</ele>
        <time>2013-03-13T13:02:35Z</time>
      </trkpt>
      <trkpt lat="50.39669" lon="5.37246">
        <ele>299</ele>
        <time>2013-03-13T13:02:35Z</time>
      </trkpt>
      <trkpt lat="50.39672" lon="5.37267">
        <ele>298.6</ele>
        <time>2013-03-13T13:02:40Z</time>
      </trkpt>
      <trkpt lat="50.39673" lon="5.37278">
        <ele>298.4</ele>
        <time>2013-03-13T13:02:43Z</time>
      </trkpt>
      <trkpt lat="50.39673" lon="5.37278">
        <ele>262.2</ele>
        <time>2013-03-13T13:02:49Z</time>
      </trkpt>
      <trkpt lat="50.39673" lon="5.37278">
        <ele>262.2</ele>
        <time>2013-03-13T13:06:18Z</time>
      </trkpt>
      <trkpt lat="50.39679" lon="5.37302">
        <ele>300</ele>
        <time>2013-03-13T13:06:18Z</time>
      </trkpt>
      <trkpt lat="50.39682" lon="5.37318">
        <ele>299.4</ele>
        <time>2013-03-13T13:06:23Z</time>
      </trkpt>
      <trkpt lat="50.39684" lon="5.37339">
        <ele>300.5</ele>
        <time>2013-03-13T13:06:30Z</time>
      </trkpt>
      <trkpt lat="50.39686" lon="5.37379">
        <ele>302.5</ele>
        <time>2013-03-13T13:06:39Z</time>
      </trkpt>
      <trkpt lat="50.39671" lon="5.37407">
        <ele>302.6</ele>
        <time>2013-03-13T13:06:44Z</time>
      </trkpt>
      <trkpt lat="50.39655" lon="5.37429">
        <ele>304.7</ele>
        <time>2013-03-13T13:06:51Z</time>
      </trkpt>
      <trkpt lat="50.39646" lon="5.3745">
        <ele>303.1</ele>
        <time>2013-03-13T13:06:56Z</time>
      </trkpt>
      <trkpt lat="50.39646" lon="5.37487">
        <ele>303.7</ele>
        <time>2013-03-13T13:07:04Z</time>
      </trkpt>
      <trkpt lat="50.3966" lon="5.37518">
        <ele>304</ele>
        <time>2013-03-13T13:07:13Z</time>
      </trkpt>
      <trkpt lat="50.3967" lon="5.37527">
        <ele>304.4</ele>
        <time>2013-03-13T13:07:17Z</time>
      </trkpt>
      <trkpt lat="50.39689" lon="5.37531">
        <ele>305.2</ele>
        <time>2013-03-13T13:07:25Z</time>
      </trkpt>
      <trkpt lat="50.39719" lon="5.37546">
        <ele>304.4</ele>
        <time>2013-03-13T13:07:33Z</time>
      </trkpt>
      <trkpt lat="50.39743" lon="5.37566">
        <ele>304.3</ele>
        <time>2013-03-13T13:07:39Z</time>
      </trkpt>
      <trkpt lat="50.39756" lon="5.37578">
        <ele>302.4</ele>
        <time>2013-03-13T13:07:45Z</time>
      </trkpt>
      <trkpt lat="50.39768" lon="5.37591">
        <ele>300</ele>
        <time>2013-03-13T13:07:54Z</time>
      </trkpt>
      <trkpt lat="50.39796" lon="5.37614">
        <ele>299.7</ele>
        <time>2013-03-13T13:08:07Z</time>
      </trkpt>
      <trkpt lat="50.39814" lon="5.37628">
        <ele>299.3</ele>
        <time>2013-03-13T13:08:14Z</time>
      </trkpt>
      <trkpt lat="50.39834" lon="5.37636">
        <ele>301</ele>
        <time>2013-03-13T13:08:22Z</time>
      </trkpt>
      <trkpt lat="50.39855" lon="5.37651">
        <ele>302.4</ele>
        <time>2013-03-13T13:08:33Z</time>
      </trkpt>
      <trkpt lat="50.39879" lon="5.3766">
        <ele>302.3</ele>
        <time>2013-03-13T13:08:44Z</time>
      </trkpt>
      <trkpt lat="50.39899" lon="5.37662">
        <ele>298.3</ele>
        <time>2013-03-13T13:08:54Z</time>
      </trkpt>
      <trkpt lat="50.39916" lon="5.3766">
        <ele>297.8</ele>
        <time>2013-03-13T13:09:03Z</time>
      </trkpt>
      <trkpt lat="50.39937" lon="5.37665">
        <ele>300.7</ele>
        <time>2013-03-13T13:09:14Z</time>
      </trkpt>
      <trkpt lat="50.39956" lon="5.37675">
        <ele>303.4</ele>
        <time>2013-03-13T13:09:27Z</time>
      </trkpt>
      <trkpt lat="50.3997" lon="5.37679">
        <ele>302.1</ele>
        <time>2013-03-13T13:09:36Z</time>
      </trkpt>
      <trkpt lat="50.39981" lon="5.37683">
        <ele>302.2</ele>
        <time>2013-03-13T13:09:42Z</time>
      </trkpt>
      <trkpt lat="50.39989" lon="5.3769">
        <ele>303.4</ele>
        <time>2013-03-13T13:09:49Z</time>
      </trkpt>
      <trkpt lat="50.4001" lon="5.37695">
        <ele>305.9</ele>
        <time>2013-03-13T13:10:04Z</time>
      </trkpt>
      <trkpt lat="50.40029" lon="5.37688">
        <ele>304.3</ele>
        <time>2013-03-13T13:10:18Z</time>
      </trkpt>
      <trkpt lat="50.40042" lon="5.37664">
        <ele>302.5</ele>
        <time>2013-03-13T13:10:27Z</time>
      </trkpt>
      <trkpt lat="50.40052" lon="5.37642">
        <ele>303</ele>
        <time>2013-03-13T13:10:36Z</time>
      </trkpt>
      <trkpt lat="50.40058" lon="5.37639">
        <ele>303.5</ele>
        <time>2013-03-13T13:10:40Z</time>
      </trkpt>
      <trkpt lat="50.40058" lon="5.37639">
        <ele>272</ele>
        <time>2013-03-13T13:10:48Z</time>
      </trkpt>
      <trkpt lat="50.40058" lon="5.37639">
        <ele>272</ele>
        <time>2013-03-13T13:11:03Z</time>
      </trkpt>
      <trkpt lat="50.40037" lon="5.37653">
        <ele>304.7</ele>
        <time>2013-03-13T13:11:03Z</time>
      </trkpt>
      <trkpt lat="50.40026" lon="5.37684">
        <ele>305.7</ele>
        <time>2013-03-13T13:11:11Z</time>
      </trkpt>
      <trkpt lat="50.40004" lon="5.37697">
        <ele>307.5</ele>
        <time>2013-03-13T13:11:19Z</time>
      </trkpt>
      <trkpt lat="50.39987" lon="5.37691">
        <ele>305.8</ele>
        <time>2013-03-13T13:11:26Z</time>
      </trkpt>
      <trkpt lat="50.39977" lon="5.37685">
        <ele>306.5</ele>
        <time>2013-03-13T13:11:31Z</time>
      </trkpt>
      <trkpt lat="50.3996" lon="5.37681">
        <ele>306</ele>
        <time>2013-03-13T13:11:40Z</time>
      </trkpt>
      <trkpt lat="50.3994" lon="5.37672">
        <ele>308.3</ele>
        <time>2013-03-13T13:11:50Z</time>
      </trkpt>
      <trkpt lat="50.39928" lon="5.37666">
        <ele>307.7</ele>
        <time>2013-03-13T13:11:54Z</time>
      </trkpt>
      <trkpt lat="50.39923" lon="5.37663">
        <ele>306.6</ele>
        <time>2013-03-13T13:11:57Z</time>
      </trkpt>
      <trkpt lat="50.39913" lon="5.37663">
        <ele>308.6</ele>
        <time>2013-03-13T13:12:04Z</time>
      </trkpt>
      <trkpt lat="50.39884" lon="5.37667">
        <ele>308.8</ele>
        <time>2013-03-13T13:12:19Z</time>
      </trkpt>
      <trkpt lat="50.39866" lon="5.37662">
        <ele>307.7</ele>
        <time>2013-03-13T13:12:27Z</time>
      </trkpt>
      <trkpt lat="50.39845" lon="5.37654">
        <ele>308.6</ele>
        <time>2013-03-13T13:12:35Z</time>
      </trkpt>
      <trkpt lat="50.39823" lon="5.37643">
        <ele>304.9</ele>
        <time>2013-03-13T13:12:44Z</time>
      </trkpt>
      <trkpt lat="50.39808" lon="5.37632">
        <ele>303.8</ele>
        <time>2013-03-13T13:12:49Z</time>
      </trkpt>
      <trkpt lat="50.39801" lon="5.37625">
        <ele>303</ele>
        <time>2013-03-13T13:12:53Z</time>
      </trkpt>
      <trkpt lat="50.39781" lon="5.37606">
        <ele>301.3</ele>
        <time>2013-03-13T13:13:01Z</time>
      </trkpt>
      <trkpt lat="50.3977" lon="5.37581">
        <ele>300.9</ele>
        <time>2013-03-13T13:13:10Z</time>
      </trkpt>
      <trkpt lat="50.39736" lon="5.3755">
        <ele>300</ele>
        <time>2013-03-13T13:13:18Z</time>
      </trkpt>
      <trkpt lat="50.39714" lon="5.37536">
        <ele>301.4</ele>
        <time>2013-03-13T13:13:25Z</time>
      </trkpt>
      <trkpt lat="50.39696" lon="5.37532">
        <ele>303.1</ele>
        <time>2013-03-13T13:13:31Z</time>
      </trkpt>
      <trkpt lat="50.39678" lon="5.37532">
        <ele>302.1</ele>
        <time>2013-03-13T13:13:39Z</time>
      </trkpt>
      <trkpt lat="50.39662" lon="5.37522">
        <ele>302.6</ele>
        <time>2013-03-13T13:13:45Z</time>
      </trkpt>
      <trkpt lat="50.39646" lon="5.37502">
        <ele>301.2</ele>
        <time>2013-03-13T13:13:50Z</time>
      </trkpt>
      <trkpt lat="50.39638" lon="5.37484">
        <ele>299.1</ele>
        <time>2013-03-13T13:13:54Z</time>
      </trkpt>
      <trkpt lat="50.39644" lon="5.37459">
        <ele>298</ele>
        <time>2013-03-13T13:14:00Z</time>
      </trkpt>
      <trkpt lat="50.39666" lon="5.37423">
        <ele>299.4</ele>
        <time>2013-03-13T13:14:07Z</time>
      </trkpt>
      <trkpt lat="50.39681" lon="5.37398">
        <ele>300.3</ele>
        <time>2013-03-13T13:14:12Z</time>
      </trkpt>
      <trkpt lat="50.39693" lon="5.37371">
        <ele>296.5</ele>
        <time>2013-03-13T13:14:18Z</time>
      </trkpt>
      <trkpt lat="50.39693" lon="5.37337">
        <ele>293.9</ele>
        <time>2013-03-13T13:14:24Z</time>
      </trkpt>
      <trkpt lat="50.39692" lon="5.37322">
        <ele>294.5</ele>
        <time>2013-03-13T13:14:27Z</time>
      </trkpt>
      <trkpt lat="50.39685" lon="5.37285">
        <ele>298.2</ele>
        <time>2013-03-13T13:14:35Z</time>
      </trkpt>
      <trkpt lat="50.39679" lon="5.37261">
        <ele>299</ele>
        <time>2013-03-13T13:14:40Z</time>
      </trkpt>
      <trkpt lat="50.39673" lon="5.37228">
        <ele>298</ele>
        <time>2013-03-13T13:14:46Z</time>
      </trkpt>
      <trkpt lat="50.39669" lon="5.37202">
        <ele>297.9</ele>
        <time>2013-03-13T13:14:50Z</time>
      </trkpt>
      <trkpt lat="50.39665" lon="5.37168">
        <ele>297.1</ele>
        <time>2013-03-13T13:14:56Z</time>
      </trkpt>
      <trkpt lat="50.39666" lon="5.37138">
        <ele>294.8</ele>
        <time>2013-03-13T13:15:04Z</time>
      </trkpt>
      <trkpt lat="50.39666" lon="5.37102">
        <ele>293.7</ele>
        <time>2013-03-13T13:15:12Z</time>
      </trkpt>
      <trkpt lat="50.3966" lon="5.3707">
        <ele>292.3</ele>
        <time>2013-03-13T13:15:18Z</time>
      </trkpt>
      <trkpt lat="50.39646" lon="5.37031">
        <ele>290.7</ele>
        <time>2013-03-13T13:15:26Z</time>
      </trkpt>
      <trkpt lat="50.39637" lon="5.37008">
        <ele>290</ele>
        <time>2013-03-13T13:15:34Z</time>
      </trkpt>
      <trkpt lat="50.39605" lon="5.36946">
        <ele>295.5</ele>
        <time>2013-03-13T13:15:44Z</time>
      </trkpt>
      <trkpt lat="50.39592" lon="5.36902">
        <ele>294.4</ele>
        <time>2013-03-13T13:15:51Z</time>
      </trkpt>
      <trkpt lat="50.39584" lon="5.36867">
        <ele>292.8</ele>
        <time>2013-03-13T13:15:58Z</time>
      </trkpt>
      <trkpt lat="50.39575" lon="5.36835">
        <ele>294.1</ele>
        <time>2013-03-13T13:16:05Z</time>
      </trkpt>
      <trkpt lat="50.39569" lon="5.36805">
        <ele>293</ele>
        <time>2013-03-13T13:16:10Z</time>
      </trkpt>
      <trkpt lat="50.39559" lon="5.36772">
        <ele>291.9</ele>
        <time>2013-03-13T13:16:15Z</time>
      </trkpt>
      <trkpt lat="50.39541" lon="5.36735">
        <ele>293.1</ele>
        <time>2013-03-13T13:16:23Z</time>
      </trkpt>
      <trkpt lat="50.39536" lon="5.36713">
        <ele>296.3</ele>
        <time>2013-03-13T13:16:30Z</time>
      </trkpt>
      <trkpt lat="50.39543" lon="5.36706">
        <ele>299.5</ele>
        <time>2013-03-13T13:16:40Z</time>
      </trkpt>
      <trkpt lat="50.39566" lon="5.36708">
        <ele>300.4</ele>
        <time>2013-03-13T13:16:56Z</time>
      </trkpt>
      <trkpt lat="50.39591" lon="5.36711">
        <ele>303.8</ele>
        <time>2013-03-13T13:17:07Z</time>
      </trkpt>
      <trkpt lat="50.39619" lon="5.36716">
        <ele>303.9</ele>
        <time>2013-03-13T13:17:16Z</time>
      </trkpt>
      <trkpt lat="50.39633" lon="5.3672">
        <ele>303.1</ele>
        <time>2013-03-13T13:17:21Z</time>
      </trkpt>
      <trkpt lat="50.39646" lon="5.36724">
        <ele>304.1</ele>
        <time>2013-03-13T13:17:26Z</time>
      </trkpt>
      <trkpt lat="50.39675" lon="5.36732">
        <ele>303.4</ele>
        <time>2013-03-13T13:17:38Z</time>
      </trkpt>
      <trkpt lat="50.39709" lon="5.36731">
        <ele>303</ele>
        <time>2013-03-13T13:17:51Z</time>
      </trkpt>
      <trkpt lat="50.39747" lon="5.36724">
        <ele>307.4</ele>
        <time>2013-03-13T13:17:58Z</time>
      </trkpt>
      <trkpt lat="50.39779" lon="5.36715">
        <ele>310.5</ele>
        <time>2013-03-13T13:18:04Z</time>
      </trkpt>
      <trkpt lat="50.39805" lon="5.36703">
        <ele>311.1</ele>
        <time>2013-03-13T13:18:10Z</time>
      </trkpt>
      <trkpt lat="50.3983" lon="5.36691">
        <ele>309.8</ele>
        <time>2013-03-13T13:18:16Z</time>
      </trkpt>
      <trkpt lat="50.39851" lon="5.36673">
        <ele>307.7</ele>
        <time>2013-03-13T13:18:21Z</time>
      </trkpt>
      <trkpt lat="50.39878" lon="5.36663">
        <ele>308.8</ele>
        <time>2013-03-13T13:18:28Z</time>
      </trkpt>
      <trkpt lat="50.39902" lon="5.3666">
        <ele>311.2</ele>
        <time>2013-03-13T13:18:34Z</time>
      </trkpt>
      <trkpt lat="50.39926" lon="5.36654">
        <ele>312.1</ele>
        <time>2013-03-13T13:18:40Z</time>
      </trkpt>
      <trkpt lat="50.39955" lon="5.36651">
        <ele>309.1</ele>
        <time>2013-03-13T13:18:47Z</time>
      </trkpt>
      <trkpt lat="50.39978" lon="5.36646">
        <ele>307.6</ele>
        <time>2013-03-13T13:18:53Z</time>
      </trkpt>
      <trkpt lat="50.40005" lon="5.36643">
        <ele>308.7</ele>
        <time>2013-03-13T13:19:00Z</time>
      </trkpt>
      <trkpt lat="50.40025" lon="5.36641">
        <ele>309.3</ele>
        <time>2013-03-13T13:19:06Z</time>
      </trkpt>
      <trkpt lat="50.40047" lon="5.36639">
        <ele>309.4</ele>
        <time>2013-03-13T13:19:13Z</time>
      </trkpt>
      <trkpt lat="50.40056" lon="5.36639">
        <ele>309.9</ele>
        <time>2013-03-13T13:19:16Z</time>
      </trkpt>
      <trkpt lat="50.40067" lon="5.36639">
        <ele>309.6</ele>
        <time>2013-03-13T13:19:19Z</time>
      </trkpt>
      <trkpt lat="50.4009" lon="5.36634">
        <ele>308.9</ele>
        <time>2013-03-13T13:19:27Z</time>
      </trkpt>
      <trkpt lat="50.40112" lon="5.36634">
        <ele>308.5</ele>
        <time>2013-03-13T13:19:35Z</time>
      </trkpt>
      <trkpt lat="50.4013" lon="5.36633">
        <ele>309.7</ele>
        <time>2013-03-13T13:19:43Z</time>
      </trkpt>
      <trkpt lat="50.40138" lon="5.36632">
        <ele>309.9</ele>
        <time>2013-03-13T13:19:47Z</time>
      </trkpt>
      <trkpt lat="50.40144" lon="5.36632">
        <ele>311</ele>
        <time>2013-03-13T13:19:50Z</time>
      </trkpt>
      <trkpt lat="50.4015" lon="5.36632">
        <ele>310.8</ele>
        <time>2013-03-13T13:19:53Z</time>
      </trkpt>
      <trkpt lat="50.4016" lon="5.36631">
        <ele>311.5</ele>
        <time>2013-03-13T13:19:57Z</time>
      </trkpt>
      <trkpt lat="50.40171" lon="5.36629">
        <ele>311.5</ele>
        <time>2013-03-13T13:20:01Z</time>
      </trkpt>
      <trkpt lat="50.40193" lon="5.36628">
        <ele>314.5</ele>
        <time>2013-03-13T13:20:11Z</time>
      </trkpt>
      <trkpt lat="50.40208" lon="5.36626">
        <ele>315.5</ele>
        <time>2013-03-13T13:20:18Z</time>
      </trkpt>
      <trkpt lat="50.40232" lon="5.36624">
        <ele>318.2</ele>
        <time>2013-03-13T13:20:28Z</time>
      </trkpt>
      <trkpt lat="50.4024" lon="5.36624">
        <ele>318.3</ele>
        <time>2013-03-13T13:20:31Z</time>
      </trkpt>
      <trkpt lat="50.40259" lon="5.36625">
        <ele>319.8</ele>
        <time>2013-03-13T13:20:40Z</time>
      </trkpt>
      <trkpt lat="50.40285" lon="5.3662">
        <ele>323.7</ele>
        <time>2013-03-13T13:20:52Z</time>
      </trkpt>
      <trkpt lat="50.40298" lon="5.36619">
        <ele>325.1</ele>
        <time>2013-03-13T13:20:57Z</time>
      </trkpt>
      <trkpt lat="50.40319" lon="5.36618">
        <ele>327.1</ele>
        <time>2013-03-13T13:21:06Z</time>
      </trkpt>
      <trkpt lat="50.40326" lon="5.36618">
        <ele>327</ele>
        <time>2013-03-13T13:21:09Z</time>
      </trkpt>
      <trkpt lat="50.40349" lon="5.36615">
        <ele>326.5</ele>
        <time>2013-03-13T13:21:19Z</time>
      </trkpt>
      <trkpt lat="50.40367" lon="5.36613">
        <ele>327.6</ele>
        <time>2013-03-13T13:21:29Z</time>
      </trkpt>
      <trkpt lat="50.40384" lon="5.36616">
        <ele>329.8</ele>
        <time>2013-03-13T13:21:40Z</time>
      </trkpt>
      <trkpt lat="50.40395" lon="5.36617">
        <ele>330.8</ele>
        <time>2013-03-13T13:21:47Z</time>
      </trkpt>
      <trkpt lat="50.40417" lon="5.36616">
        <ele>332.2</ele>
        <time>2013-03-13T13:21:59Z</time>
      </trkpt>
      <trkpt lat="50.40433" lon="5.36613">
        <ele>333.3</ele>
        <time>2013-03-13T13:22:06Z</time>
      </trkpt>
      <trkpt lat="50.40453" lon="5.36613">
        <ele>332.6</ele>
        <time>2013-03-13T13:22:16Z</time>
      </trkpt>
      <trkpt lat="50.40465" lon="5.36615">
        <ele>331</ele>
        <time>2013-03-13T13:22:23Z</time>
      </trkpt>
      <trkpt lat="50.40491" lon="5.36615">
        <ele>330.9</ele>
        <time>2013-03-13T13:22:36Z</time>
      </trkpt>
      <trkpt lat="50.40501" lon="5.36614">
        <ele>332.3</ele>
        <time>2013-03-13T13:22:41Z</time>
      </trkpt>
      <trkpt lat="50.40523" lon="5.36611">
        <ele>330</ele>
        <time>2013-03-13T13:22:51Z</time>
      </trkpt>
      <trkpt lat="50.40537" lon="5.3661">
        <ele>330</ele>
        <time>2013-03-13T13:22:58Z</time>
      </trkpt>
      <trkpt lat="50.40549" lon="5.36605">
        <ele>332</ele>
        <time>2013-03-13T13:23:10Z</time>
      </trkpt>
      <trkpt lat="50.40623" lon="5.36577">
        <ele>333.3</ele>
        <time>2013-03-13T13:23:27Z</time>
      </trkpt>
      <trkpt lat="50.40638" lon="5.36567">
        <ele>333.1</ele>
        <time>2013-03-13T13:23:30Z</time>
      </trkpt>
      <trkpt lat="50.40676" lon="5.36545">
        <ele>333.8</ele>
        <time>2013-03-13T13:23:36Z</time>
      </trkpt>
      <trkpt lat="50.40693" lon="5.36536">
        <ele>334.7</ele>
        <time>2013-03-13T13:23:39Z</time>
      </trkpt>
      <trkpt lat="50.40725" lon="5.36524">
        <ele>335.1</ele>
        <time>2013-03-13T13:23:44Z</time>
      </trkpt>
      <trkpt lat="50.40746" lon="5.36516">
        <ele>336.5</ele>
        <time>2013-03-13T13:23:47Z</time>
      </trkpt>
      <trkpt lat="50.40789" lon="5.36503">
        <ele>337.4</ele>
        <time>2013-03-13T13:23:53Z</time>
      </trkpt>
      <trkpt lat="50.40827" lon="5.36489">
        <ele>337.9</ele>
        <time>2013-03-13T13:23:59Z</time>
      </trkpt>
      <trkpt lat="50.40847" lon="5.36481">
        <ele>338.1</ele>
        <time>2013-03-13T13:24:03Z</time>
      </trkpt>
      <trkpt lat="50.40872" lon="5.36472">
        <ele>337.7</ele>
        <time>2013-03-13T13:24:08Z</time>
      </trkpt>
      <trkpt lat="50.40901" lon="5.36461">
        <ele>337.6</ele>
        <time>2013-03-13T13:24:14Z</time>
      </trkpt>
      <trkpt lat="50.40923" lon="5.36455">
        <ele>337.3</ele>
        <time>2013-03-13T13:24:19Z</time>
      </trkpt>
      <trkpt lat="50.4094" lon="5.36447">
        <ele>337.1</ele>
        <time>2013-03-13T13:24:27Z</time>
      </trkpt>
      <trkpt lat="50.40953" lon="5.36442">
        <ele>337.9</ele>
        <time>2013-03-13T13:24:36Z</time>
      </trkpt>
      <trkpt lat="50.40971" lon="5.36436">
        <ele>338.8</ele>
        <time>2013-03-13T13:24:49Z</time>
      </trkpt>
      <trkpt lat="50.40997" lon="5.36427">
        <ele>338.4</ele>
        <time>2013-03-13T13:25:07Z</time>
      </trkpt>
      <trkpt lat="50.41021" lon="5.36415">
        <ele>342.1</ele>
        <time>2013-03-13T13:25:20Z</time>
      </trkpt>
      <trkpt lat="50.41035" lon="5.36413">
        <ele>340.5</ele>
        <time>2013-03-13T13:25:28Z</time>
      </trkpt>
      <trkpt lat="50.41053" lon="5.36409">
        <ele>343.6</ele>
        <time>2013-03-13T13:25:39Z</time>
      </trkpt>
      <trkpt lat="50.41074" lon="5.364">
        <ele>345.8</ele>
        <time>2013-03-13T13:25:52Z</time>
      </trkpt>
      <trkpt lat="50.4109" lon="5.36395">
        <ele>348.3</ele>
        <time>2013-03-13T13:26:04Z</time>
      </trkpt>
      <trkpt lat="50.41114" lon="5.36392">
        <ele>348.6</ele>
        <time>2013-03-13T13:26:19Z</time>
      </trkpt>
      <trkpt lat="50.41134" lon="5.36385">
        <ele>351.4</ele>
        <time>2013-03-13T13:26:32Z</time>
      </trkpt>
      <trkpt lat="50.41146" lon="5.36378">
        <ele>352.4</ele>
        <time>2013-03-13T13:26:40Z</time>
      </trkpt>
      <trkpt lat="50.41152" lon="5.36375">
        <ele>353.2</ele>
        <time>2013-03-13T13:26:47Z</time>
      </trkpt>
      <trkpt lat="50.4118" lon="5.36358">
        <ele>358.1</ele>
        <time>2013-03-13T13:27:03Z</time>
      </trkpt>
      <trkpt lat="50.41187" lon="5.36356">
        <ele>357.4</ele>
        <time>2013-03-13T13:27:10Z</time>
      </trkpt>
      <trkpt lat="50.41203" lon="5.3634">
        <ele>356.3</ele>
        <time>2013-03-13T13:27:21Z</time>
      </trkpt>
      <trkpt lat="50.41228" lon="5.3632">
        <ele>356.1</ele>
        <time>2013-03-13T13:27:26Z</time>
      </trkpt>
      <trkpt lat="50.41255" lon="5.36305">
        <ele>356.5</ele>
        <time>2013-03-13T13:27:31Z</time>
      </trkpt>
      <trkpt lat="50.41303" lon="5.36305">
        <ele>356.6</ele>
        <time>2013-03-13T13:27:37Z</time>
      </trkpt>
      <trkpt lat="50.41342" lon="5.36302">
        <ele>355.4</ele>
        <time>2013-03-13T13:27:43Z</time>
      </trkpt>
      <trkpt lat="50.41365" lon="5.36301">
        <ele>353.7</ele>
        <time>2013-03-13T13:27:46Z</time>
      </trkpt>
      <trkpt lat="50.41409" lon="5.36308">
        <ele>352.5</ele>
        <time>2013-03-13T13:27:51Z</time>
      </trkpt>
      <trkpt lat="50.41465" lon="5.36303">
        <ele>349.5</ele>
        <time>2013-03-13T13:27:57Z</time>
      </trkpt>
      <trkpt lat="50.41518" lon="5.36287">
        <ele>343</ele>
        <time>2013-03-13T13:28:02Z</time>
      </trkpt>
      <trkpt lat="50.41575" lon="5.36259">
        <ele>338.4</ele>
        <time>2013-03-13T13:28:08Z</time>
      </trkpt>
      <trkpt lat="50.41617" lon="5.36237">
        <ele>334.5</ele>
        <time>2013-03-13T13:28:13Z</time>
      </trkpt>
      <trkpt lat="50.4166" lon="5.36216">
        <ele>332.3</ele>
        <time>2013-03-13T13:28:18Z</time>
      </trkpt>
      <trkpt lat="50.41712" lon="5.36204">
        <ele>329.7</ele>
        <time>2013-03-13T13:28:24Z</time>
      </trkpt>
      <trkpt lat="50.41762" lon="5.36193">
        <ele>328.4</ele>
        <time>2013-03-13T13:28:30Z</time>
      </trkpt>
      <trkpt lat="50.41803" lon="5.36194">
        <ele>326.2</ele>
        <time>2013-03-13T13:28:35Z</time>
      </trkpt>
      <trkpt lat="50.41848" lon="5.36216">
        <ele>323.8</ele>
        <time>2013-03-13T13:28:41Z</time>
      </trkpt>
      <trkpt lat="50.41894" lon="5.36205">
        <ele>321.1</ele>
        <time>2013-03-13T13:28:47Z</time>
      </trkpt>
      <trkpt lat="50.4193" lon="5.36193">
        <ele>319.9</ele>
        <time>2013-03-13T13:28:52Z</time>
      </trkpt>
      <trkpt lat="50.4196" lon="5.36174">
        <ele>319.8</ele>
        <time>2013-03-13T13:28:57Z</time>
      </trkpt>
      <trkpt lat="50.41988" lon="5.36155">
        <ele>319.9</ele>
        <time>2013-03-13T13:29:03Z</time>
      </trkpt>
      <trkpt lat="50.42015" lon="5.36134">
        <ele>318.9</ele>
        <time>2013-03-13T13:29:08Z</time>
      </trkpt>
      <trkpt lat="50.42041" lon="5.36115">
        <ele>318.4</ele>
        <time>2013-03-13T13:29:14Z</time>
      </trkpt>
      <trkpt lat="50.42054" lon="5.36102">
        <ele>318.4</ele>
        <time>2013-03-13T13:29:20Z</time>
      </trkpt>
      <trkpt lat="50.42076" lon="5.36084">
        <ele>318.9</ele>
        <time>2013-03-13T13:29:29Z</time>
      </trkpt>
      <trkpt lat="50.42092" lon="5.36072">
        <ele>318.5</ele>
        <time>2013-03-13T13:29:35Z</time>
      </trkpt>
      <trkpt lat="50.42102" lon="5.36065">
        <ele>318.7</ele>
        <time>2013-03-13T13:29:42Z</time>
      </trkpt>
      <trkpt lat="50.42113" lon="5.36056">
        <ele>318.7</ele>
        <time>2013-03-13T13:29:48Z</time>
      </trkpt>
      <trkpt lat="50.42123" lon="5.36048">
        <ele>317.9</ele>
        <time>2013-03-13T13:29:51Z</time>
      </trkpt>
      <trkpt lat="50.42133" lon="5.36039">
        <ele>317.8</ele>
        <time>2013-03-13T13:29:54Z</time>
      </trkpt>
      <trkpt lat="50.42159" lon="5.36022">
        <ele>318.3</ele>
        <time>2013-03-13T13:29:59Z</time>
      </trkpt>
      <trkpt lat="50.42199" lon="5.35993">
        <ele>318.5</ele>
        <time>2013-03-13T13:30:04Z</time>
      </trkpt>
      <trkpt lat="50.42228" lon="5.35961">
        <ele>318.2</ele>
        <time>2013-03-13T13:30:09Z</time>
      </trkpt>
      <trkpt lat="50.42261" lon="5.35936">
        <ele>316.9</ele>
        <time>2013-03-13T13:30:15Z</time>
      </trkpt>
      <trkpt lat="50.42283" lon="5.35923">
        <ele>316.2</ele>
        <time>2013-03-13T13:30:20Z</time>
      </trkpt>
      <trkpt lat="50.423" lon="5.35899">
        <ele>313.9</ele>
        <time>2013-03-13T13:30:26Z</time>
      </trkpt>
      <trkpt lat="50.42315" lon="5.35884">
        <ele>312.3</ele>
        <time>2013-03-13T13:30:33Z</time>
      </trkpt>
      <trkpt lat="50.4233" lon="5.35878">
        <ele>310.1</ele>
        <time>2013-03-13T13:30:38Z</time>
      </trkpt>
      <trkpt lat="50.42348" lon="5.35868">
        <ele>308.1</ele>
        <time>2013-03-13T13:30:45Z</time>
      </trkpt>
      <trkpt lat="50.42368" lon="5.35858">
        <ele>307.8</ele>
        <time>2013-03-13T13:30:51Z</time>
      </trkpt>
      <trkpt lat="50.42387" lon="5.35846">
        <ele>308.1</ele>
        <time>2013-03-13T13:30:58Z</time>
      </trkpt>
      <trkpt lat="50.424" lon="5.35833">
        <ele>309.5</ele>
        <time>2013-03-13T13:31:05Z</time>
      </trkpt>
      <trkpt lat="50.42425" lon="5.35816">
        <ele>313.3</ele>
        <time>2013-03-13T13:31:13Z</time>
      </trkpt>
      <trkpt lat="50.42449" lon="5.35795">
        <ele>311.2</ele>
        <time>2013-03-13T13:31:19Z</time>
      </trkpt>
      <trkpt lat="50.42489" lon="5.35772">
        <ele>310.9</ele>
        <time>2013-03-13T13:31:25Z</time>
      </trkpt>
      <trkpt lat="50.4252" lon="5.35749">
        <ele>312.1</ele>
        <time>2013-03-13T13:31:31Z</time>
      </trkpt>
      <trkpt lat="50.42536" lon="5.35738">
        <ele>313</ele>
        <time>2013-03-13T13:31:33Z</time>
      </trkpt>
      <trkpt lat="50.42564" lon="5.35725">
        <ele>311.9</ele>
        <time>2013-03-13T13:31:39Z</time>
      </trkpt>
      <trkpt lat="50.42592" lon="5.35705">
        <ele>313</ele>
        <time>2013-03-13T13:31:45Z</time>
      </trkpt>
      <trkpt lat="50.42609" lon="5.35694">
        <ele>313.4</ele>
        <time>2013-03-13T13:31:51Z</time>
      </trkpt>
      <trkpt lat="50.42627" lon="5.35711">
        <ele>310.6</ele>
        <time>2013-03-13T13:31:58Z</time>
      </trkpt>
      <trkpt lat="50.42642" lon="5.35732">
        <ele>308.2</ele>
        <time>2013-03-13T13:32:05Z</time>
      </trkpt>
      <trkpt lat="50.42651" lon="5.35746">
        <ele>308.6</ele>
        <time>2013-03-13T13:32:09Z</time>
      </trkpt>
      <trkpt lat="50.42682" lon="5.35788">
        <ele>308.9</ele>
        <time>2013-03-13T13:32:16Z</time>
      </trkpt>
      <trkpt lat="50.42711" lon="5.35818">
        <ele>306.8</ele>
        <time>2013-03-13T13:32:23Z</time>
      </trkpt>
      <trkpt lat="50.42734" lon="5.35846">
        <ele>306.7</ele>
        <time>2013-03-13T13:32:28Z</time>
      </trkpt>
      <trkpt lat="50.42753" lon="5.3587">
        <ele>306.1</ele>
        <time>2013-03-13T13:32:33Z</time>
      </trkpt>
      <trkpt lat="50.42777" lon="5.35899">
        <ele>304.8</ele>
        <time>2013-03-13T13:32:39Z</time>
      </trkpt>
      <trkpt lat="50.42794" lon="5.3592">
        <ele>305.2</ele>
        <time>2013-03-13T13:32:45Z</time>
      </trkpt>
      <trkpt lat="50.42811" lon="5.35943">
        <ele>305.7</ele>
        <time>2013-03-13T13:32:51Z</time>
      </trkpt>
      <trkpt lat="50.42827" lon="5.35969">
        <ele>305</ele>
        <time>2013-03-13T13:32:57Z</time>
      </trkpt>
      <trkpt lat="50.42846" lon="5.35993">
        <ele>305.8</ele>
        <time>2013-03-13T13:33:03Z</time>
      </trkpt>
      <trkpt lat="50.42856" lon="5.36004">
        <ele>306.3</ele>
        <time>2013-03-13T13:33:06Z</time>
      </trkpt>
      <trkpt lat="50.42867" lon="5.36022">
        <ele>307.3</ele>
        <time>2013-03-13T13:33:10Z</time>
      </trkpt>
      <trkpt lat="50.42876" lon="5.36046">
        <ele>306.9</ele>
        <time>2013-03-13T13:33:16Z</time>
      </trkpt>
      <trkpt lat="50.42894" lon="5.3608">
        <ele>304.2</ele>
        <time>2013-03-13T13:33:24Z</time>
      </trkpt>
      <trkpt lat="50.42914" lon="5.36125">
        <ele>305.7</ele>
        <time>2013-03-13T13:33:32Z</time>
      </trkpt>
      <trkpt lat="50.42923" lon="5.36148">
        <ele>306.2</ele>
        <time>2013-03-13T13:33:37Z</time>
      </trkpt>
      <trkpt lat="50.42936" lon="5.36168">
        <ele>304.8</ele>
        <time>2013-03-13T13:33:42Z</time>
      </trkpt>
      <trkpt lat="50.42949" lon="5.36178">
        <ele>304.1</ele>
        <time>2013-03-13T13:33:46Z</time>
      </trkpt>
      <trkpt lat="50.42964" lon="5.36199">
        <ele>304.9</ele>
        <time>2013-03-13T13:33:51Z</time>
      </trkpt>
      <trkpt lat="50.42983" lon="5.36229">
        <ele>305.2</ele>
        <time>2013-03-13T13:33:57Z</time>
      </trkpt>
      <trkpt lat="50.43" lon="5.36256">
        <ele>306.2</ele>
        <time>2013-03-13T13:34:03Z</time>
      </trkpt>
      <trkpt lat="50.43015" lon="5.36282">
        <ele>307.6</ele>
        <time>2013-03-13T13:34:08Z</time>
      </trkpt>
      <trkpt lat="50.43025" lon="5.36301">
        <ele>307.9</ele>
        <time>2013-03-13T13:34:11Z</time>
      </trkpt>
      <trkpt lat="50.43044" lon="5.36347">
        <ele>307.3</ele>
        <time>2013-03-13T13:34:18Z</time>
      </trkpt>
      <trkpt lat="50.43057" lon="5.36374">
        <ele>308.2</ele>
        <time>2013-03-13T13:34:23Z</time>
      </trkpt>
      <trkpt lat="50.43074" lon="5.36402">
        <ele>307.5</ele>
        <time>2013-03-13T13:34:29Z</time>
      </trkpt>
      <trkpt lat="50.43097" lon="5.36429">
        <ele>306.9</ele>
        <time>2013-03-13T13:34:36Z</time>
      </trkpt>
      <trkpt lat="50.43121" lon="5.36471">
        <ele>307.7</ele>
        <time>2013-03-13T13:34:41Z</time>
      </trkpt>
      <trkpt lat="50.43146" lon="5.36516">
        <ele>313.6</ele>
        <time>2013-03-13T13:34:48Z</time>
      </trkpt>
      <trkpt lat="50.43175" lon="5.36554">
        <ele>312.6</ele>
        <time>2013-03-13T13:34:55Z</time>
      </trkpt>
      <trkpt lat="50.43201" lon="5.36591">
        <ele>311</ele>
        <time>2013-03-13T13:35:01Z</time>
      </trkpt>
      <trkpt lat="50.43211" lon="5.36601">
        <ele>313.9</ele>
        <time>2013-03-13T13:35:06Z</time>
      </trkpt>
      <trkpt lat="50.43211" lon="5.36601">
        <ele>257.6</ele>
        <time>2013-03-13T13:35:11Z</time>
      </trkpt>
      <trkpt lat="50.43211" lon="5.36601">
        <ele>257.6</ele>
        <time>2013-03-13T13:35:24Z</time>
      </trkpt>
      <trkpt lat="50.43194" lon="5.36584">
        <ele>309.9</ele>
        <time>2013-03-13T13:35:24Z</time>
      </trkpt>
      <trkpt lat="50.43176" lon="5.3656">
        <ele>308.8</ele>
        <time>2013-03-13T13:35:29Z</time>
      </trkpt>
      <trkpt lat="50.43164" lon="5.36536">
        <ele>308.4</ele>
        <time>2013-03-13T13:35:35Z</time>
      </trkpt>
      <trkpt lat="50.43152" lon="5.36516">
        <ele>306.5</ele>
        <time>2013-03-13T13:35:42Z</time>
      </trkpt>
      <trkpt lat="50.43149" lon="5.36485">
        <ele>308.2</ele>
        <time>2013-03-13T13:35:52Z</time>
      </trkpt>
      <trkpt lat="50.43171" lon="5.36467">
        <ele>307.9</ele>
        <time>2013-03-13T13:36:02Z</time>
      </trkpt>
      <trkpt lat="50.43182" lon="5.36454">
        <ele>305.6</ele>
        <time>2013-03-13T13:36:07Z</time>
      </trkpt>
      <trkpt lat="50.43199" lon="5.36433">
        <ele>305.1</ele>
        <time>2013-03-13T13:36:15Z</time>
      </trkpt>
      <trkpt lat="50.43208" lon="5.3642">
        <ele>306.7</ele>
        <time>2013-03-13T13:36:22Z</time>
      </trkpt>
      <trkpt lat="50.43233" lon="5.36448">
        <ele>309.1</ele>
        <time>2013-03-13T13:36:33Z</time>
      </trkpt>
      <trkpt lat="50.43253" lon="5.36482">
        <ele>308.7</ele>
        <time>2013-03-13T13:36:40Z</time>
      </trkpt>
      <trkpt lat="50.43267" lon="5.36512">
        <ele>309</ele>
        <time>2013-03-13T13:36:46Z</time>
      </trkpt>
      <trkpt lat="50.43279" lon="5.3654">
        <ele>309.9</ele>
        <time>2013-03-13T13:36:51Z</time>
      </trkpt>
      <trkpt lat="50.43286" lon="5.36558">
        <ele>310</ele>
        <time>2013-03-13T13:36:54Z</time>
      </trkpt>
      <trkpt lat="50.43303" lon="5.36587">
        <ele>309.7</ele>
        <time>2013-03-13T13:37:00Z</time>
      </trkpt>
      <trkpt lat="50.43318" lon="5.36616">
        <ele>308.5</ele>
        <time>2013-03-13T13:37:07Z</time>
      </trkpt>
      <trkpt lat="50.4334" lon="5.36616">
        <ele>308.9</ele>
        <time>2013-03-13T13:37:15Z</time>
      </trkpt>
      <trkpt lat="50.43362" lon="5.36597">
        <ele>309.4</ele>
        <time>2013-03-13T13:37:20Z</time>
      </trkpt>
      <trkpt lat="50.4338" lon="5.36579">
        <ele>308.1</ele>
        <time>2013-03-13T13:37:23Z</time>
      </trkpt>
      <trkpt lat="50.43414" lon="5.36546">
        <ele>308</ele>
        <time>2013-03-13T13:37:29Z</time>
      </trkpt>
      <trkpt lat="50.43452" lon="5.36515">
        <ele>306.4</ele>
        <time>2013-03-13T13:37:35Z</time>
      </trkpt>
      <trkpt lat="50.43474" lon="5.36496">
        <ele>305.6</ele>
        <time>2013-03-13T13:37:38Z</time>
      </trkpt>
      <trkpt lat="50.43492" lon="5.36482">
        <ele>304.6</ele>
        <time>2013-03-13T13:37:41Z</time>
      </trkpt>
      <trkpt lat="50.4351" lon="5.36467">
        <ele>305</ele>
        <time>2013-03-13T13:37:45Z</time>
      </trkpt>
      <trkpt lat="50.43529" lon="5.36451">
        <ele>302.2</ele>
        <time>2013-03-13T13:37:51Z</time>
      </trkpt>
      <trkpt lat="50.43554" lon="5.36435">
        <ele>297.5</ele>
        <time>2013-03-13T13:38:00Z</time>
      </trkpt>
      <trkpt lat="50.43568" lon="5.36425">
        <ele>296.8</ele>
        <time>2013-03-13T13:38:05Z</time>
      </trkpt>
      <trkpt lat="50.43588" lon="5.36406">
        <ele>298</ele>
        <time>2013-03-13T13:38:13Z</time>
      </trkpt>
      <trkpt lat="50.43602" lon="5.3639">
        <ele>298.9</ele>
        <time>2013-03-13T13:38:18Z</time>
      </trkpt>
      <trkpt lat="50.43621" lon="5.36372">
        <ele>299.7</ele>
        <time>2013-03-13T13:38:24Z</time>
      </trkpt>
      <trkpt lat="50.43644" lon="5.3635">
        <ele>300.5</ele>
        <time>2013-03-13T13:38:31Z</time>
      </trkpt>
      <trkpt lat="50.43661" lon="5.36334">
        <ele>298.7</ele>
        <time>2013-03-13T13:38:36Z</time>
      </trkpt>
      <trkpt lat="50.43684" lon="5.36313">
        <ele>297.6</ele>
        <time>2013-03-13T13:38:42Z</time>
      </trkpt>
      <trkpt lat="50.43708" lon="5.36291">
        <ele>297</ele>
        <time>2013-03-13T13:38:48Z</time>
      </trkpt>
      <trkpt lat="50.4373" lon="5.36271">
        <ele>296.7</ele>
        <time>2013-03-13T13:38:54Z</time>
      </trkpt>
      <trkpt lat="50.43755" lon="5.36245">
        <ele>297.7</ele>
        <time>2013-03-13T13:38:59Z</time>
      </trkpt>
      <trkpt lat="50.43782" lon="5.36221">
        <ele>295.9</ele>
        <time>2013-03-13T13:39:05Z</time>
      </trkpt>
      <trkpt lat="50.43806" lon="5.36197">
        <ele>295.3</ele>
        <time>2013-03-13T13:39:10Z</time>
      </trkpt>
      <trkpt lat="50.43821" lon="5.36187">
        <ele>295.1</ele>
        <time>2013-03-13T13:39:13Z</time>
      </trkpt>
      <trkpt lat="50.4385" lon="5.36164">
        <ele>295.9</ele>
        <time>2013-03-13T13:39:19Z</time>
      </trkpt>
      <trkpt lat="50.43878" lon="5.36134">
        <ele>293</ele>
        <time>2013-03-13T13:39:26Z</time>
      </trkpt>
      <trkpt lat="50.43908" lon="5.36112">
        <ele>292.6</ele>
        <time>2013-03-13T13:39:31Z</time>
      </trkpt>
      <trkpt lat="50.43924" lon="5.36099">
        <ele>292.3</ele>
        <time>2013-03-13T13:39:34Z</time>
      </trkpt>
      <trkpt lat="50.43947" lon="5.36079">
        <ele>289.9</ele>
        <time>2013-03-13T13:39:39Z</time>
      </trkpt>
      <trkpt lat="50.43968" lon="5.3606">
        <ele>289.8</ele>
        <time>2013-03-13T13:39:44Z</time>
      </trkpt>
      <trkpt lat="50.44011" lon="5.36022">
        <ele>288.4</ele>
        <time>2013-03-13T13:39:51Z</time>
      </trkpt>
      <trkpt lat="50.44039" lon="5.35997">
        <ele>289</ele>
        <time>2013-03-13T13:39:56Z</time>
      </trkpt>
      <trkpt lat="50.44063" lon="5.35974">
        <ele>289</ele>
        <time>2013-03-13T13:40:01Z</time>
      </trkpt>
      <trkpt lat="50.44093" lon="5.35948">
        <ele>290.1</ele>
        <time>2013-03-13T13:40:07Z</time>
      </trkpt>
      <trkpt lat="50.44113" lon="5.35927">
        <ele>290.8</ele>
        <time>2013-03-13T13:40:11Z</time>
      </trkpt>
      <trkpt lat="50.44144" lon="5.35897">
        <ele>289</ele>
        <time>2013-03-13T13:40:17Z</time>
      </trkpt>
      <trkpt lat="50.44177" lon="5.35869">
        <ele>287.4</ele>
        <time>2013-03-13T13:40:23Z</time>
      </trkpt>
      <trkpt lat="50.44203" lon="5.35847">
        <ele>287.9</ele>
        <time>2013-03-13T13:40:28Z</time>
      </trkpt>
      <trkpt lat="50.44235" lon="5.35821">
        <ele>287.7</ele>
        <time>2013-03-13T13:40:34Z</time>
      </trkpt>
      <trkpt lat="50.44248" lon="5.35807">
        <ele>285.8</ele>
        <time>2013-03-13T13:40:37Z</time>
      </trkpt>
      <trkpt lat="50.44277" lon="5.35781">
        <ele>286.6</ele>
        <time>2013-03-13T13:40:43Z</time>
      </trkpt>
      <trkpt lat="50.44291" lon="5.35766">
        <ele>286.1</ele>
        <time>2013-03-13T13:40:46Z</time>
      </trkpt>
      <trkpt lat="50.44326" lon="5.35734">
        <ele>286.1</ele>
        <time>2013-03-13T13:40:52Z</time>
      </trkpt>
      <trkpt lat="50.44366" lon="5.35697">
        <ele>283.7</ele>
        <time>2013-03-13T13:41:00Z</time>
      </trkpt>
      <trkpt lat="50.444" lon="5.35668">
        <ele>279.8</ele>
        <time>2013-03-13T13:41:05Z</time>
      </trkpt>
      <trkpt lat="50.44426" lon="5.3565">
        <ele>280.5</ele>
        <time>2013-03-13T13:41:10Z</time>
      </trkpt>
      <trkpt lat="50.44452" lon="5.35662">
        <ele>280.3</ele>
        <time>2013-03-13T13:41:16Z</time>
      </trkpt>
      <trkpt lat="50.44478" lon="5.35685">
        <ele>278.5</ele>
        <time>2013-03-13T13:41:21Z</time>
      </trkpt>
      <trkpt lat="50.44512" lon="5.35707">
        <ele>278.8</ele>
        <time>2013-03-13T13:41:27Z</time>
      </trkpt>
      <trkpt lat="50.4454" lon="5.3572">
        <ele>279.1</ele>
        <time>2013-03-13T13:41:33Z</time>
      </trkpt>
      <trkpt lat="50.44551" lon="5.35696">
        <ele>280</ele>
        <time>2013-03-13T13:41:39Z</time>
      </trkpt>
      <trkpt lat="50.4455" lon="5.35644">
        <ele>279.8</ele>
        <time>2013-03-13T13:41:45Z</time>
      </trkpt>
      <trkpt lat="50.44532" lon="5.35607">
        <ele>279</ele>
        <time>2013-03-13T13:41:50Z</time>
      </trkpt>
      <trkpt lat="50.44529" lon="5.35571">
        <ele>280.1</ele>
        <time>2013-03-13T13:41:55Z</time>
      </trkpt>
      <trkpt lat="50.4454" lon="5.35535">
        <ele>276.5</ele>
        <time>2013-03-13T13:42:02Z</time>
      </trkpt>
      <trkpt lat="50.44558" lon="5.35518">
        <ele>276.9</ele>
        <time>2013-03-13T13:42:10Z</time>
      </trkpt>
      <trkpt lat="50.44575" lon="5.35509">
        <ele>272.3</ele>
        <time>2013-03-13T13:42:16Z</time>
      </trkpt>
      <trkpt lat="50.4459" lon="5.35507">
        <ele>273.1</ele>
        <time>2013-03-13T13:42:23Z</time>
      </trkpt>
      <trkpt lat="50.44614" lon="5.35498">
        <ele>271.1</ele>
        <time>2013-03-13T13:42:34Z</time>
      </trkpt>
      <trkpt lat="50.44625" lon="5.35492">
        <ele>271.7</ele>
        <time>2013-03-13T13:42:39Z</time>
      </trkpt>
      <trkpt lat="50.44642" lon="5.35471">
        <ele>272.9</ele>
        <time>2013-03-13T13:42:46Z</time>
      </trkpt>
      <trkpt lat="50.44639" lon="5.35436">
        <ele>274.3</ele>
        <time>2013-03-13T13:42:53Z</time>
      </trkpt>
      <trkpt lat="50.4463" lon="5.35403">
        <ele>275.7</ele>
        <time>2013-03-13T13:42:59Z</time>
      </trkpt>
      <trkpt lat="50.44629" lon="5.35376">
        <ele>275.2</ele>
        <time>2013-03-13T13:43:09Z</time>
      </trkpt>
      <trkpt lat="50.44624" lon="5.35349">
        <ele>276.5</ele>
        <time>2013-03-13T13:43:19Z</time>
      </trkpt>
      <trkpt lat="50.44617" lon="5.35332">
        <ele>278.7</ele>
        <time>2013-03-13T13:43:26Z</time>
      </trkpt>
      <trkpt lat="50.44605" lon="5.35303">
        <ele>282.2</ele>
        <time>2013-03-13T13:43:36Z</time>
      </trkpt>
      <trkpt lat="50.44599" lon="5.35287">
        <ele>283.2</ele>
        <time>2013-03-13T13:43:43Z</time>
      </trkpt>
      <trkpt lat="50.44595" lon="5.35272">
        <ele>283.2</ele>
        <time>2013-03-13T13:43:51Z</time>
      </trkpt>
      <trkpt lat="50.44576" lon="5.3523">
        <ele>284.7</ele>
        <time>2013-03-13T13:44:01Z</time>
      </trkpt>
      <trkpt lat="50.44568" lon="5.35205">
        <ele>288.5</ele>
        <time>2013-03-13T13:44:07Z</time>
      </trkpt>
      <trkpt lat="50.44558" lon="5.35186">
        <ele>288.1</ele>
        <time>2013-03-13T13:44:13Z</time>
      </trkpt>
      <trkpt lat="50.44552" lon="5.35167">
        <ele>287.5</ele>
        <time>2013-03-13T13:44:19Z</time>
      </trkpt>
      <trkpt lat="50.44542" lon="5.35134">
        <ele>288.7</ele>
        <time>2013-03-13T13:44:27Z</time>
      </trkpt>
      <trkpt lat="50.44537" lon="5.35108">
        <ele>287.1</ele>
        <time>2013-03-13T13:44:35Z</time>
      </trkpt>
      <trkpt lat="50.4453" lon="5.35071">
        <ele>286.2</ele>
        <time>2013-03-13T13:44:46Z</time>
      </trkpt>
      <trkpt lat="50.44526" lon="5.35037">
        <ele>285.5</ele>
        <time>2013-03-13T13:44:55Z</time>
      </trkpt>
      <trkpt lat="50.44513" lon="5.35008">
        <ele>291.5</ele>
        <time>2013-03-13T13:45:01Z</time>
      </trkpt>
      <trkpt lat="50.44507" lon="5.34987">
        <ele>285.8</ele>
        <time>2013-03-13T13:45:09Z</time>
      </trkpt>
      <trkpt lat="50.44487" lon="5.34941">
        <ele>287.7</ele>
        <time>2013-03-13T13:45:21Z</time>
      </trkpt>
      <trkpt lat="50.44478" lon="5.34926">
        <ele>287.5</ele>
        <time>2013-03-13T13:45:25Z</time>
      </trkpt>
      <trkpt lat="50.44469" lon="5.3491">
        <ele>288.6</ele>
        <time>2013-03-13T13:45:29Z</time>
      </trkpt>
      <trkpt lat="50.44457" lon="5.34887">
        <ele>288.5</ele>
        <time>2013-03-13T13:45:36Z</time>
      </trkpt>
      <trkpt lat="50.44452" lon="5.34878">
        <ele>288.9</ele>
        <time>2013-03-13T13:45:39Z</time>
      </trkpt>
      <trkpt lat="50.44445" lon="5.34867">
        <ele>289.3</ele>
        <time>2013-03-13T13:45:43Z</time>
      </trkpt>
      <trkpt lat="50.44429" lon="5.34829">
        <ele>291</ele>
        <time>2013-03-13T13:45:54Z</time>
      </trkpt>
      <trkpt lat="50.44429" lon="5.34829">
        <ele>291</ele>
        <time>2013-03-13T13:45:59Z</time>
      </trkpt>
      <trkpt lat="50.44429" lon="5.34829">
        <ele>245.5</ele>
        <time>2013-03-13T13:45:59Z</time>
      </trkpt>
      <trkpt lat="50.44429" lon="5.34829">
        <ele>245.5</ele>
        <time>2013-03-13T13:46:06Z</time>
      </trkpt>
      <trkpt lat="50.44446" lon="5.3483">
        <ele>289.1</ele>
        <time>2013-03-13T13:46:06Z</time>
      </trkpt>
      <trkpt lat="50.44459" lon="5.34835">
        <ele>288.9</ele>
        <time>2013-03-13T13:46:11Z</time>
      </trkpt>
      <trkpt lat="50.44476" lon="5.3484">
        <ele>289.3</ele>
        <time>2013-03-13T13:46:17Z</time>
      </trkpt>
      <trkpt lat="50.44491" lon="5.34834">
        <ele>290.7</ele>
        <time>2013-03-13T13:46:26Z</time>
      </trkpt>
      <trkpt lat="50.44515" lon="5.3483">
        <ele>289.7</ele>
        <time>2013-03-13T13:46:37Z</time>
      </trkpt>
      <trkpt lat="50.44541" lon="5.34825">
        <ele>293.2</ele>
        <time>2013-03-13T13:46:46Z</time>
      </trkpt>
      <trkpt lat="50.4456" lon="5.34817">
        <ele>294.5</ele>
        <time>2013-03-13T13:46:52Z</time>
      </trkpt>
      <trkpt lat="50.4458" lon="5.34811">
        <ele>292.7</ele>
        <time>2013-03-13T13:47:00Z</time>
      </trkpt>
      <trkpt lat="50.44599" lon="5.34808">
        <ele>292.6</ele>
        <time>2013-03-13T13:47:07Z</time>
      </trkpt>
      <trkpt lat="50.44621" lon="5.34793">
        <ele>293</ele>
        <time>2013-03-13T13:47:17Z</time>
      </trkpt>
      <trkpt lat="50.44646" lon="5.34786">
        <ele>293.5</ele>
        <time>2013-03-13T13:47:27Z</time>
      </trkpt>
      <trkpt lat="50.4466" lon="5.34793">
        <ele>294.9</ele>
        <time>2013-03-13T13:47:35Z</time>
      </trkpt>
      <trkpt lat="50.4466" lon="5.34793">
        <ele>294.9</ele>
        <time>2013-03-13T13:47:40Z</time>
      </trkpt>
      <trkpt lat="50.4466" lon="5.34793">
        <ele>252.9</ele>
        <time>2013-03-13T13:47:40Z</time>
      </trkpt>
      <trkpt lat="50.4466" lon="5.34793">
        <ele>252.9</ele>
        <time>2013-03-13T13:56:53Z</time>
      </trkpt>
      <trkpt lat="50.4466" lon="5.34793">
        <ele>252.9</ele>
        <time>2013-03-13T13:57:35Z</time>
      </trkpt>
      <trkpt lat="50.4466" lon="5.34793">
        <ele>252.9</ele>
        <time>2013-03-13T13:57:36Z</time>
      </trkpt>
    </trkseg>
  </trk>
</gpx>